<?xml version="1.0" encoding="UTF-8" standalone="no" ?>
<gpx xmlns="http://www.topografix.com/GPX/1/1" xmlns:xsi="http://www.w3.org/2001/XMLSchema-instance" xsi:schemaLocation="http://www.topografix.com/GPX/1/1 http://www.topografix.com/GPX/1/1/gpx.xsd" version="1.1" creator="VisuGPX - https://www.visugpx.com">
  <metadata>
    <name>83-Me-Lorgues</name>
    <desc><![CDATA[83-Me-Lorgues : Sauveclare - chapelle St Jean - le Paroir
2020-01-08]]></desc>
  </metadata>
  <trk>
    <name><![CDATA[2020-01-08-Me-Lorgues]]></name>
    <trkseg>
      <trkpt lat="43.50771" lon="6.38835">
        <ele>164.8</ele>
        <time>2020-01-08T12:41:30Z</time>
      </trkpt>
      <trkpt lat="43.50771" lon="6.38834">
        <ele>164.8</ele>
        <time>2020-01-08T12:41:31Z</time>
      </trkpt>
      <trkpt lat="43.50773" lon="6.38846">
        <ele>165</ele>
        <time>2020-01-08T12:42:55Z</time>
      </trkpt>
      <trkpt lat="43.5077" lon="6.38858">
        <ele>165.3</ele>
        <time>2020-01-08T12:44:48Z</time>
      </trkpt>
      <trkpt lat="43.50765" lon="6.38848">
        <ele>165.4</ele>
        <time>2020-01-08T12:45:33Z</time>
      </trkpt>
      <trkpt lat="43.50762" lon="6.3886">
        <ele>164.9</ele>
        <time>2020-01-08T12:45:54Z</time>
      </trkpt>
      <trkpt lat="43.50753" lon="6.38865">
        <ele>164.2</ele>
        <time>2020-01-08T12:46:08Z</time>
      </trkpt>
      <trkpt lat="43.50746" lon="6.38874">
        <ele>163.8</ele>
        <time>2020-01-08T12:46:20Z</time>
      </trkpt>
      <trkpt lat="43.50744" lon="6.38886">
        <ele>163.4</ele>
        <time>2020-01-08T12:46:32Z</time>
      </trkpt>
      <trkpt lat="43.50742" lon="6.38899">
        <ele>162.8</ele>
        <time>2020-01-08T12:46:43Z</time>
      </trkpt>
      <trkpt lat="43.50739" lon="6.3891">
        <ele>162.4</ele>
        <time>2020-01-08T12:46:52Z</time>
      </trkpt>
      <trkpt lat="43.50734" lon="6.38921">
        <ele>162.3</ele>
        <time>2020-01-08T12:47:00Z</time>
      </trkpt>
      <trkpt lat="43.50732" lon="6.38934">
        <ele>162.1</ele>
        <time>2020-01-08T12:47:13Z</time>
      </trkpt>
      <trkpt lat="43.50731" lon="6.38947">
        <ele>161.9</ele>
        <time>2020-01-08T12:47:23Z</time>
      </trkpt>
      <trkpt lat="43.50728" lon="6.38959">
        <ele>162.3</ele>
        <time>2020-01-08T12:47:33Z</time>
      </trkpt>
      <trkpt lat="43.50723" lon="6.38971">
        <ele>162.6</ele>
        <time>2020-01-08T12:47:43Z</time>
      </trkpt>
      <trkpt lat="43.50717" lon="6.38983">
        <ele>162.7</ele>
        <time>2020-01-08T12:47:51Z</time>
      </trkpt>
      <trkpt lat="43.50709" lon="6.38989">
        <ele>162.8</ele>
        <time>2020-01-08T12:48:01Z</time>
      </trkpt>
      <trkpt lat="43.50699" lon="6.3899">
        <ele>163.5</ele>
        <time>2020-01-08T12:48:10Z</time>
      </trkpt>
      <trkpt lat="43.5069" lon="6.38991">
        <ele>164.5</ele>
        <time>2020-01-08T12:48:18Z</time>
      </trkpt>
      <trkpt lat="43.50681" lon="6.38993">
        <ele>165.1</ele>
        <time>2020-01-08T12:48:27Z</time>
      </trkpt>
      <trkpt lat="43.50672" lon="6.38997">
        <ele>165.9</ele>
        <time>2020-01-08T12:48:36Z</time>
      </trkpt>
      <trkpt lat="43.50664" lon="6.39005">
        <ele>166.4</ele>
        <time>2020-01-08T12:48:47Z</time>
      </trkpt>
      <trkpt lat="43.50657" lon="6.39013">
        <ele>166.8</ele>
        <time>2020-01-08T12:48:56Z</time>
      </trkpt>
      <trkpt lat="43.50648" lon="6.39014">
        <ele>167.9</ele>
        <time>2020-01-08T12:49:07Z</time>
      </trkpt>
      <trkpt lat="43.5064" lon="6.39007">
        <ele>169.4</ele>
        <time>2020-01-08T12:49:25Z</time>
      </trkpt>
      <trkpt lat="43.50642" lon="6.38995">
        <ele>170.6</ele>
        <time>2020-01-08T12:49:43Z</time>
      </trkpt>
      <trkpt lat="43.50643" lon="6.38982">
        <ele>170.6</ele>
        <time>2020-01-08T12:49:54Z</time>
      </trkpt>
      <trkpt lat="43.50639" lon="6.38969">
        <ele>170.6</ele>
        <time>2020-01-08T12:50:02Z</time>
      </trkpt>
      <trkpt lat="43.50635" lon="6.38958">
        <ele>171.1</ele>
        <time>2020-01-08T12:50:10Z</time>
      </trkpt>
      <trkpt lat="43.50631" lon="6.38947">
        <ele>171.4</ele>
        <time>2020-01-08T12:50:17Z</time>
      </trkpt>
      <trkpt lat="43.50624" lon="6.38937">
        <ele>171.8</ele>
        <time>2020-01-08T12:50:25Z</time>
      </trkpt>
      <trkpt lat="43.50617" lon="6.38928">
        <ele>172.2</ele>
        <time>2020-01-08T12:50:34Z</time>
      </trkpt>
      <trkpt lat="43.50608" lon="6.38922">
        <ele>173</ele>
        <time>2020-01-08T12:50:47Z</time>
      </trkpt>
      <trkpt lat="43.50599" lon="6.38922">
        <ele>174</ele>
        <time>2020-01-08T12:50:57Z</time>
      </trkpt>
      <trkpt lat="43.50589" lon="6.38921">
        <ele>175.1</ele>
        <time>2020-01-08T12:51:06Z</time>
      </trkpt>
      <trkpt lat="43.50579" lon="6.38921">
        <ele>176.1</ele>
        <time>2020-01-08T12:51:15Z</time>
      </trkpt>
      <trkpt lat="43.5057" lon="6.38921">
        <ele>177</ele>
        <time>2020-01-08T12:51:23Z</time>
      </trkpt>
      <trkpt lat="43.50561" lon="6.38919">
        <ele>178.1</ele>
        <time>2020-01-08T12:51:32Z</time>
      </trkpt>
      <trkpt lat="43.50551" lon="6.38918">
        <ele>179.1</ele>
        <time>2020-01-08T12:51:40Z</time>
      </trkpt>
      <trkpt lat="43.50541" lon="6.38915">
        <ele>180</ele>
        <time>2020-01-08T12:51:48Z</time>
      </trkpt>
      <trkpt lat="43.50533" lon="6.38911">
        <ele>180.3</ele>
        <time>2020-01-08T12:51:55Z</time>
      </trkpt>
      <trkpt lat="43.50523" lon="6.38905">
        <ele>180.4</ele>
        <time>2020-01-08T12:52:03Z</time>
      </trkpt>
      <trkpt lat="43.50515" lon="6.38899">
        <ele>180.5</ele>
        <time>2020-01-08T12:52:11Z</time>
      </trkpt>
      <trkpt lat="43.50507" lon="6.38894">
        <ele>180.9</ele>
        <time>2020-01-08T12:52:18Z</time>
      </trkpt>
      <trkpt lat="43.50498" lon="6.38889">
        <ele>180.8</ele>
        <time>2020-01-08T12:52:26Z</time>
      </trkpt>
      <trkpt lat="43.5049" lon="6.38883">
        <ele>181.4</ele>
        <time>2020-01-08T12:52:34Z</time>
      </trkpt>
      <trkpt lat="43.50482" lon="6.38874">
        <ele>181.9</ele>
        <time>2020-01-08T12:52:42Z</time>
      </trkpt>
      <trkpt lat="43.50475" lon="6.38866">
        <ele>182.6</ele>
        <time>2020-01-08T12:52:50Z</time>
      </trkpt>
      <trkpt lat="43.50467" lon="6.38858">
        <ele>183</ele>
        <time>2020-01-08T12:52:58Z</time>
      </trkpt>
      <trkpt lat="43.50459" lon="6.3885">
        <ele>182.9</ele>
        <time>2020-01-08T12:53:06Z</time>
      </trkpt>
      <trkpt lat="43.50451" lon="6.38843">
        <ele>183.4</ele>
        <time>2020-01-08T12:53:14Z</time>
      </trkpt>
      <trkpt lat="43.50442" lon="6.38836">
        <ele>184.1</ele>
        <time>2020-01-08T12:53:22Z</time>
      </trkpt>
      <trkpt lat="43.50434" lon="6.38833">
        <ele>184.3</ele>
        <time>2020-01-08T12:53:30Z</time>
      </trkpt>
      <trkpt lat="43.50424" lon="6.38833">
        <ele>184.6</ele>
        <time>2020-01-08T12:53:39Z</time>
      </trkpt>
      <trkpt lat="43.50415" lon="6.38837">
        <ele>184.8</ele>
        <time>2020-01-08T12:53:48Z</time>
      </trkpt>
      <trkpt lat="43.50406" lon="6.38842">
        <ele>185.1</ele>
        <time>2020-01-08T12:53:56Z</time>
      </trkpt>
      <trkpt lat="43.50397" lon="6.38847">
        <ele>185.2</ele>
        <time>2020-01-08T12:54:04Z</time>
      </trkpt>
      <trkpt lat="43.50388" lon="6.3885">
        <ele>185.1</ele>
        <time>2020-01-08T12:54:12Z</time>
      </trkpt>
      <trkpt lat="43.50379" lon="6.38853">
        <ele>185.4</ele>
        <time>2020-01-08T12:54:20Z</time>
      </trkpt>
      <trkpt lat="43.50369" lon="6.38854">
        <ele>185.6</ele>
        <time>2020-01-08T12:54:28Z</time>
      </trkpt>
      <trkpt lat="43.50359" lon="6.38855">
        <ele>185.7</ele>
        <time>2020-01-08T12:54:37Z</time>
      </trkpt>
      <trkpt lat="43.50349" lon="6.38855">
        <ele>185.9</ele>
        <time>2020-01-08T12:54:45Z</time>
      </trkpt>
      <trkpt lat="43.50339" lon="6.38853">
        <ele>185.9</ele>
        <time>2020-01-08T12:54:53Z</time>
      </trkpt>
      <trkpt lat="43.5033" lon="6.38851">
        <ele>185.4</ele>
        <time>2020-01-08T12:55:00Z</time>
      </trkpt>
      <trkpt lat="43.5032" lon="6.38851">
        <ele>184.8</ele>
        <time>2020-01-08T12:55:08Z</time>
      </trkpt>
      <trkpt lat="43.50311" lon="6.38851">
        <ele>184.2</ele>
        <time>2020-01-08T12:55:16Z</time>
      </trkpt>
      <trkpt lat="43.50301" lon="6.38848">
        <ele>184.2</ele>
        <time>2020-01-08T12:55:23Z</time>
      </trkpt>
      <trkpt lat="43.50292" lon="6.38845">
        <ele>183.8</ele>
        <time>2020-01-08T12:55:32Z</time>
      </trkpt>
      <trkpt lat="43.50282" lon="6.38843">
        <ele>183.7</ele>
        <time>2020-01-08T12:55:39Z</time>
      </trkpt>
      <trkpt lat="43.50273" lon="6.3884">
        <ele>183.5</ele>
        <time>2020-01-08T12:55:47Z</time>
      </trkpt>
      <trkpt lat="43.50264" lon="6.38838">
        <ele>182.7</ele>
        <time>2020-01-08T12:55:56Z</time>
      </trkpt>
      <trkpt lat="43.50254" lon="6.38838">
        <ele>182.6</ele>
        <time>2020-01-08T12:56:04Z</time>
      </trkpt>
      <trkpt lat="43.50245" lon="6.38834">
        <ele>182.6</ele>
        <time>2020-01-08T12:56:12Z</time>
      </trkpt>
      <trkpt lat="43.50236" lon="6.38832">
        <ele>182.3</ele>
        <time>2020-01-08T12:56:19Z</time>
      </trkpt>
      <trkpt lat="43.50227" lon="6.38832">
        <ele>181.5</ele>
        <time>2020-01-08T12:56:28Z</time>
      </trkpt>
      <trkpt lat="43.5022" lon="6.38842">
        <ele>181.1</ele>
        <time>2020-01-08T12:56:37Z</time>
      </trkpt>
      <trkpt lat="43.50217" lon="6.38855">
        <ele>180.4</ele>
        <time>2020-01-08T12:56:47Z</time>
      </trkpt>
      <trkpt lat="43.50214" lon="6.38868">
        <ele>179.5</ele>
        <time>2020-01-08T12:56:57Z</time>
      </trkpt>
      <trkpt lat="43.50212" lon="6.38881">
        <ele>178.9</ele>
        <time>2020-01-08T12:57:06Z</time>
      </trkpt>
      <trkpt lat="43.5021" lon="6.38895">
        <ele>178.2</ele>
        <time>2020-01-08T12:57:15Z</time>
      </trkpt>
      <trkpt lat="43.50208" lon="6.38908">
        <ele>178.2</ele>
        <time>2020-01-08T12:57:24Z</time>
      </trkpt>
      <trkpt lat="43.50206" lon="6.38921">
        <ele>178.2</ele>
        <time>2020-01-08T12:57:32Z</time>
      </trkpt>
      <trkpt lat="43.50205" lon="6.38935">
        <ele>178.1</ele>
        <time>2020-01-08T12:57:41Z</time>
      </trkpt>
      <trkpt lat="43.50204" lon="6.38947">
        <ele>178.1</ele>
        <time>2020-01-08T12:57:49Z</time>
      </trkpt>
      <trkpt lat="43.50202" lon="6.3896">
        <ele>178.1</ele>
        <time>2020-01-08T12:57:58Z</time>
      </trkpt>
      <trkpt lat="43.502" lon="6.38972">
        <ele>178.2</ele>
        <time>2020-01-08T12:58:06Z</time>
      </trkpt>
      <trkpt lat="43.50199" lon="6.38985">
        <ele>178.3</ele>
        <time>2020-01-08T12:58:14Z</time>
      </trkpt>
      <trkpt lat="43.50197" lon="6.38998">
        <ele>178.4</ele>
        <time>2020-01-08T12:58:22Z</time>
      </trkpt>
      <trkpt lat="43.50192" lon="6.3901">
        <ele>178.1</ele>
        <time>2020-01-08T12:58:30Z</time>
      </trkpt>
      <trkpt lat="43.50189" lon="6.39021">
        <ele>178.7</ele>
        <time>2020-01-08T12:58:38Z</time>
      </trkpt>
      <trkpt lat="43.50186" lon="6.39033">
        <ele>179.4</ele>
        <time>2020-01-08T12:58:46Z</time>
      </trkpt>
      <trkpt lat="43.50183" lon="6.39046">
        <ele>180</ele>
        <time>2020-01-08T12:58:55Z</time>
      </trkpt>
      <trkpt lat="43.50181" lon="6.39059">
        <ele>180.3</ele>
        <time>2020-01-08T12:59:04Z</time>
      </trkpt>
      <trkpt lat="43.5018" lon="6.39072">
        <ele>180.8</ele>
        <time>2020-01-08T12:59:13Z</time>
      </trkpt>
      <trkpt lat="43.50178" lon="6.39085">
        <ele>181.3</ele>
        <time>2020-01-08T12:59:22Z</time>
      </trkpt>
      <trkpt lat="43.50176" lon="6.39098">
        <ele>182.1</ele>
        <time>2020-01-08T12:59:31Z</time>
      </trkpt>
      <trkpt lat="43.50173" lon="6.3911">
        <ele>182.8</ele>
        <time>2020-01-08T12:59:40Z</time>
      </trkpt>
      <trkpt lat="43.5017" lon="6.39123">
        <ele>183.7</ele>
        <time>2020-01-08T12:59:51Z</time>
      </trkpt>
      <trkpt lat="43.50168" lon="6.39136">
        <ele>184.4</ele>
        <time>2020-01-08T13:00:00Z</time>
      </trkpt>
      <trkpt lat="43.50166" lon="6.39148">
        <ele>184.7</ele>
        <time>2020-01-08T13:00:08Z</time>
      </trkpt>
      <trkpt lat="43.50165" lon="6.39161">
        <ele>184.9</ele>
        <time>2020-01-08T13:00:17Z</time>
      </trkpt>
      <trkpt lat="43.50163" lon="6.39174">
        <ele>184.6</ele>
        <time>2020-01-08T13:00:26Z</time>
      </trkpt>
      <trkpt lat="43.50162" lon="6.39187">
        <ele>183.3</ele>
        <time>2020-01-08T13:00:35Z</time>
      </trkpt>
      <trkpt lat="43.5016" lon="6.392">
        <ele>183</ele>
        <time>2020-01-08T13:00:45Z</time>
      </trkpt>
      <trkpt lat="43.50159" lon="6.39213">
        <ele>182.2</ele>
        <time>2020-01-08T13:00:53Z</time>
      </trkpt>
      <trkpt lat="43.50158" lon="6.39226">
        <ele>181.6</ele>
        <time>2020-01-08T13:01:00Z</time>
      </trkpt>
      <trkpt lat="43.50157" lon="6.39239">
        <ele>181.6</ele>
        <time>2020-01-08T13:01:07Z</time>
      </trkpt>
      <trkpt lat="43.50156" lon="6.39251">
        <ele>181.3</ele>
        <time>2020-01-08T13:01:14Z</time>
      </trkpt>
      <trkpt lat="43.50154" lon="6.39263">
        <ele>181.3</ele>
        <time>2020-01-08T13:01:22Z</time>
      </trkpt>
      <trkpt lat="43.50151" lon="6.39276">
        <ele>181.7</ele>
        <time>2020-01-08T13:01:30Z</time>
      </trkpt>
      <trkpt lat="43.50147" lon="6.39288">
        <ele>181.8</ele>
        <time>2020-01-08T13:01:38Z</time>
      </trkpt>
      <trkpt lat="43.50143" lon="6.39299">
        <ele>182.2</ele>
        <time>2020-01-08T13:01:46Z</time>
      </trkpt>
      <trkpt lat="43.50137" lon="6.39311">
        <ele>182.6</ele>
        <time>2020-01-08T13:01:55Z</time>
      </trkpt>
      <trkpt lat="43.50132" lon="6.39321">
        <ele>183.1</ele>
        <time>2020-01-08T13:02:02Z</time>
      </trkpt>
      <trkpt lat="43.50126" lon="6.39332">
        <ele>183.4</ele>
        <time>2020-01-08T13:02:10Z</time>
      </trkpt>
      <trkpt lat="43.50123" lon="6.39344">
        <ele>182.8</ele>
        <time>2020-01-08T13:02:18Z</time>
      </trkpt>
      <trkpt lat="43.5012" lon="6.39357">
        <ele>182.7</ele>
        <time>2020-01-08T13:02:26Z</time>
      </trkpt>
      <trkpt lat="43.50118" lon="6.39369">
        <ele>182.5</ele>
        <time>2020-01-08T13:02:34Z</time>
      </trkpt>
      <trkpt lat="43.50117" lon="6.39383">
        <ele>182</ele>
        <time>2020-01-08T13:02:44Z</time>
      </trkpt>
      <trkpt lat="43.50119" lon="6.39395">
        <ele>181</ele>
        <time>2020-01-08T13:02:54Z</time>
      </trkpt>
      <trkpt lat="43.50122" lon="6.39408">
        <ele>179.5</ele>
        <time>2020-01-08T13:03:06Z</time>
      </trkpt>
      <trkpt lat="43.50127" lon="6.3942">
        <ele>178.1</ele>
        <time>2020-01-08T13:03:16Z</time>
      </trkpt>
      <trkpt lat="43.50131" lon="6.39432">
        <ele>177.2</ele>
        <time>2020-01-08T13:03:24Z</time>
      </trkpt>
      <trkpt lat="43.50135" lon="6.39444">
        <ele>176.2</ele>
        <time>2020-01-08T13:03:32Z</time>
      </trkpt>
      <trkpt lat="43.50138" lon="6.39457">
        <ele>175.7</ele>
        <time>2020-01-08T13:03:39Z</time>
      </trkpt>
      <trkpt lat="43.50141" lon="6.3947">
        <ele>174.8</ele>
        <time>2020-01-08T13:03:46Z</time>
      </trkpt>
      <trkpt lat="43.50142" lon="6.39484">
        <ele>174.1</ele>
        <time>2020-01-08T13:03:54Z</time>
      </trkpt>
      <trkpt lat="43.50143" lon="6.39496">
        <ele>173.3</ele>
        <time>2020-01-08T13:04:02Z</time>
      </trkpt>
      <trkpt lat="43.50144" lon="6.39509">
        <ele>172.6</ele>
        <time>2020-01-08T13:04:09Z</time>
      </trkpt>
      <trkpt lat="43.50144" lon="6.39523">
        <ele>171.7</ele>
        <time>2020-01-08T13:04:18Z</time>
      </trkpt>
      <trkpt lat="43.50144" lon="6.39537">
        <ele>171.4</ele>
        <time>2020-01-08T13:04:27Z</time>
      </trkpt>
      <trkpt lat="43.50144" lon="6.39549">
        <ele>171.3</ele>
        <time>2020-01-08T13:04:35Z</time>
      </trkpt>
      <trkpt lat="43.50144" lon="6.39562">
        <ele>170.9</ele>
        <time>2020-01-08T13:04:44Z</time>
      </trkpt>
      <trkpt lat="43.50144" lon="6.39576">
        <ele>170.7</ele>
        <time>2020-01-08T13:04:53Z</time>
      </trkpt>
      <trkpt lat="43.50144" lon="6.39589">
        <ele>169.9</ele>
        <time>2020-01-08T13:05:02Z</time>
      </trkpt>
      <trkpt lat="43.50146" lon="6.39602">
        <ele>169.3</ele>
        <time>2020-01-08T13:05:11Z</time>
      </trkpt>
      <trkpt lat="43.50146" lon="6.39614">
        <ele>168.5</ele>
        <time>2020-01-08T13:05:20Z</time>
      </trkpt>
      <trkpt lat="43.5015" lon="6.39627">
        <ele>167.3</ele>
        <time>2020-01-08T13:05:28Z</time>
      </trkpt>
      <trkpt lat="43.50153" lon="6.39639">
        <ele>166.8</ele>
        <time>2020-01-08T13:05:35Z</time>
      </trkpt>
      <trkpt lat="43.50155" lon="6.39652">
        <ele>166.5</ele>
        <time>2020-01-08T13:05:41Z</time>
      </trkpt>
      <trkpt lat="43.50155" lon="6.39665">
        <ele>166</ele>
        <time>2020-01-08T13:05:50Z</time>
      </trkpt>
      <trkpt lat="43.50156" lon="6.39678">
        <ele>166</ele>
        <time>2020-01-08T13:05:58Z</time>
      </trkpt>
      <trkpt lat="43.50155" lon="6.39692">
        <ele>165.1</ele>
        <time>2020-01-08T13:06:06Z</time>
      </trkpt>
      <trkpt lat="43.50155" lon="6.39705">
        <ele>164.7</ele>
        <time>2020-01-08T13:06:14Z</time>
      </trkpt>
      <trkpt lat="43.50153" lon="6.39718">
        <ele>164.1</ele>
        <time>2020-01-08T13:06:22Z</time>
      </trkpt>
      <trkpt lat="43.50154" lon="6.39731">
        <ele>163.7</ele>
        <time>2020-01-08T13:06:31Z</time>
      </trkpt>
      <trkpt lat="43.50153" lon="6.39744">
        <ele>163.1</ele>
        <time>2020-01-08T13:06:39Z</time>
      </trkpt>
      <trkpt lat="43.50152" lon="6.39757">
        <ele>161.9</ele>
        <time>2020-01-08T13:06:47Z</time>
      </trkpt>
      <trkpt lat="43.50151" lon="6.3977">
        <ele>161.4</ele>
        <time>2020-01-08T13:06:55Z</time>
      </trkpt>
      <trkpt lat="43.5015" lon="6.39783">
        <ele>160.8</ele>
        <time>2020-01-08T13:07:03Z</time>
      </trkpt>
      <trkpt lat="43.50149" lon="6.39797">
        <ele>159.9</ele>
        <time>2020-01-08T13:07:12Z</time>
      </trkpt>
      <trkpt lat="43.5015" lon="6.39809">
        <ele>158.5</ele>
        <time>2020-01-08T13:07:21Z</time>
      </trkpt>
      <trkpt lat="43.50149" lon="6.39823">
        <ele>157.6</ele>
        <time>2020-01-08T13:07:29Z</time>
      </trkpt>
      <trkpt lat="43.50148" lon="6.39836">
        <ele>156.8</ele>
        <time>2020-01-08T13:07:37Z</time>
      </trkpt>
      <trkpt lat="43.50148" lon="6.39849">
        <ele>156.4</ele>
        <time>2020-01-08T13:07:45Z</time>
      </trkpt>
      <trkpt lat="43.50148" lon="6.39861">
        <ele>156.2</ele>
        <time>2020-01-08T13:07:53Z</time>
      </trkpt>
      <trkpt lat="43.50147" lon="6.39874">
        <ele>155.4</ele>
        <time>2020-01-08T13:08:01Z</time>
      </trkpt>
      <trkpt lat="43.50147" lon="6.39887">
        <ele>154.6</ele>
        <time>2020-01-08T13:08:09Z</time>
      </trkpt>
      <trkpt lat="43.50147" lon="6.39899">
        <ele>154</ele>
        <time>2020-01-08T13:08:17Z</time>
      </trkpt>
      <trkpt lat="43.50148" lon="6.39912">
        <ele>153.5</ele>
        <time>2020-01-08T13:08:25Z</time>
      </trkpt>
      <trkpt lat="43.50151" lon="6.39925">
        <ele>152.6</ele>
        <time>2020-01-08T13:08:34Z</time>
      </trkpt>
      <trkpt lat="43.50155" lon="6.39936">
        <ele>152.3</ele>
        <time>2020-01-08T13:08:43Z</time>
      </trkpt>
      <trkpt lat="43.50161" lon="6.39947">
        <ele>151.1</ele>
        <time>2020-01-08T13:08:53Z</time>
      </trkpt>
      <trkpt lat="43.50168" lon="6.39955">
        <ele>150.7</ele>
        <time>2020-01-08T13:09:03Z</time>
      </trkpt>
      <trkpt lat="43.50175" lon="6.39964">
        <ele>150.4</ele>
        <time>2020-01-08T13:09:11Z</time>
      </trkpt>
      <trkpt lat="43.50183" lon="6.39971">
        <ele>150.4</ele>
        <time>2020-01-08T13:09:19Z</time>
      </trkpt>
      <trkpt lat="43.50191" lon="6.39978">
        <ele>150.3</ele>
        <time>2020-01-08T13:09:27Z</time>
      </trkpt>
      <trkpt lat="43.50199" lon="6.39985">
        <ele>150.5</ele>
        <time>2020-01-08T13:09:34Z</time>
      </trkpt>
      <trkpt lat="43.50208" lon="6.39991">
        <ele>151</ele>
        <time>2020-01-08T13:09:42Z</time>
      </trkpt>
      <trkpt lat="43.50217" lon="6.39993">
        <ele>151.1</ele>
        <time>2020-01-08T13:09:51Z</time>
      </trkpt>
      <trkpt lat="43.50226" lon="6.39998">
        <ele>150.9</ele>
        <time>2020-01-08T13:09:58Z</time>
      </trkpt>
      <trkpt lat="43.50235" lon="6.4">
        <ele>151.3</ele>
        <time>2020-01-08T13:10:06Z</time>
      </trkpt>
      <trkpt lat="43.50245" lon="6.4">
        <ele>151</ele>
        <time>2020-01-08T13:10:15Z</time>
      </trkpt>
      <trkpt lat="43.50254" lon="6.39999">
        <ele>150.7</ele>
        <time>2020-01-08T13:10:23Z</time>
      </trkpt>
      <trkpt lat="43.50264" lon="6.39998">
        <ele>150</ele>
        <time>2020-01-08T13:10:32Z</time>
      </trkpt>
      <trkpt lat="43.50273" lon="6.39999">
        <ele>149.6</ele>
        <time>2020-01-08T13:10:43Z</time>
      </trkpt>
      <trkpt lat="43.50282" lon="6.40003">
        <ele>148.2</ele>
        <time>2020-01-08T13:10:55Z</time>
      </trkpt>
      <trkpt lat="43.50289" lon="6.40011">
        <ele>147.7</ele>
        <time>2020-01-08T13:11:05Z</time>
      </trkpt>
      <trkpt lat="43.50297" lon="6.40019">
        <ele>146.7</ele>
        <time>2020-01-08T13:11:14Z</time>
      </trkpt>
      <trkpt lat="43.50303" lon="6.40028">
        <ele>146.1</ele>
        <time>2020-01-08T13:11:24Z</time>
      </trkpt>
      <trkpt lat="43.50304" lon="6.40041">
        <ele>145.6</ele>
        <time>2020-01-08T13:11:32Z</time>
      </trkpt>
      <trkpt lat="43.50301" lon="6.40054">
        <ele>145</ele>
        <time>2020-01-08T13:11:41Z</time>
      </trkpt>
      <trkpt lat="43.50296" lon="6.40065">
        <ele>144.5</ele>
        <time>2020-01-08T13:11:50Z</time>
      </trkpt>
      <trkpt lat="43.50292" lon="6.40076">
        <ele>144.5</ele>
        <time>2020-01-08T13:11:59Z</time>
      </trkpt>
      <trkpt lat="43.50288" lon="6.40088">
        <ele>144.9</ele>
        <time>2020-01-08T13:12:14Z</time>
      </trkpt>
      <trkpt lat="43.50283" lon="6.40098">
        <ele>145.6</ele>
        <time>2020-01-08T13:17:06Z</time>
      </trkpt>
      <trkpt lat="43.50279" lon="6.4011">
        <ele>144.3</ele>
        <time>2020-01-08T13:17:20Z</time>
      </trkpt>
      <trkpt lat="43.50281" lon="6.40122">
        <ele>143.5</ele>
        <time>2020-01-08T13:17:33Z</time>
      </trkpt>
      <trkpt lat="43.50289" lon="6.40129">
        <ele>143.3</ele>
        <time>2020-01-08T13:17:53Z</time>
      </trkpt>
      <trkpt lat="43.50294" lon="6.40139">
        <ele>143.5</ele>
        <time>2020-01-08T13:18:31Z</time>
      </trkpt>
      <trkpt lat="43.50296" lon="6.40152">
        <ele>144.3</ele>
        <time>2020-01-08T13:19:00Z</time>
      </trkpt>
      <trkpt lat="43.50299" lon="6.40164">
        <ele>144.8</ele>
        <time>2020-01-08T13:19:14Z</time>
      </trkpt>
      <trkpt lat="43.50302" lon="6.40176">
        <ele>145.3</ele>
        <time>2020-01-08T13:19:32Z</time>
      </trkpt>
      <trkpt lat="43.50303" lon="6.40188">
        <ele>146.2</ele>
        <time>2020-01-08T13:19:46Z</time>
      </trkpt>
      <trkpt lat="43.50304" lon="6.40201">
        <ele>147.6</ele>
        <time>2020-01-08T13:20:01Z</time>
      </trkpt>
      <trkpt lat="43.50304" lon="6.40213">
        <ele>149</ele>
        <time>2020-01-08T13:20:18Z</time>
      </trkpt>
      <trkpt lat="43.50309" lon="6.40226">
        <ele>150.6</ele>
        <time>2020-01-08T13:20:33Z</time>
      </trkpt>
      <trkpt lat="43.50307" lon="6.40239">
        <ele>152</ele>
        <time>2020-01-08T13:20:48Z</time>
      </trkpt>
      <trkpt lat="43.50306" lon="6.40252">
        <ele>152.4</ele>
        <time>2020-01-08T13:21:03Z</time>
      </trkpt>
      <trkpt lat="43.50304" lon="6.40264">
        <ele>152.6</ele>
        <time>2020-01-08T13:21:17Z</time>
      </trkpt>
      <trkpt lat="43.50302" lon="6.40277">
        <ele>153</ele>
        <time>2020-01-08T13:21:30Z</time>
      </trkpt>
      <trkpt lat="43.503" lon="6.4029">
        <ele>153.3</ele>
        <time>2020-01-08T13:21:41Z</time>
      </trkpt>
      <trkpt lat="43.50297" lon="6.40302">
        <ele>154.2</ele>
        <time>2020-01-08T13:21:52Z</time>
      </trkpt>
      <trkpt lat="43.50297" lon="6.40315">
        <ele>154.8</ele>
        <time>2020-01-08T13:22:04Z</time>
      </trkpt>
      <trkpt lat="43.50296" lon="6.40327">
        <ele>155.8</ele>
        <time>2020-01-08T13:22:16Z</time>
      </trkpt>
      <trkpt lat="43.50295" lon="6.4034">
        <ele>157.4</ele>
        <time>2020-01-08T13:22:31Z</time>
      </trkpt>
      <trkpt lat="43.503" lon="6.40351">
        <ele>159.2</ele>
        <time>2020-01-08T13:22:46Z</time>
      </trkpt>
      <trkpt lat="43.50304" lon="6.40363">
        <ele>160</ele>
        <time>2020-01-08T13:22:56Z</time>
      </trkpt>
      <trkpt lat="43.50306" lon="6.40375">
        <ele>160.8</ele>
        <time>2020-01-08T13:23:05Z</time>
      </trkpt>
      <trkpt lat="43.50307" lon="6.40388">
        <ele>162</ele>
        <time>2020-01-08T13:23:18Z</time>
      </trkpt>
      <trkpt lat="43.50308" lon="6.40401">
        <ele>163.4</ele>
        <time>2020-01-08T13:23:31Z</time>
      </trkpt>
      <trkpt lat="43.50309" lon="6.40413">
        <ele>164.6</ele>
        <time>2020-01-08T13:23:44Z</time>
      </trkpt>
      <trkpt lat="43.50307" lon="6.40426">
        <ele>165.8</ele>
        <time>2020-01-08T13:23:58Z</time>
      </trkpt>
      <trkpt lat="43.50308" lon="6.40438">
        <ele>166.7</ele>
        <time>2020-01-08T13:24:15Z</time>
      </trkpt>
      <trkpt lat="43.50314" lon="6.40448">
        <ele>167.6</ele>
        <time>2020-01-08T13:24:26Z</time>
      </trkpt>
      <trkpt lat="43.50317" lon="6.40461">
        <ele>168.7</ele>
        <time>2020-01-08T13:24:39Z</time>
      </trkpt>
      <trkpt lat="43.50321" lon="6.40472">
        <ele>169.6</ele>
        <time>2020-01-08T13:24:52Z</time>
      </trkpt>
      <trkpt lat="43.50326" lon="6.40483">
        <ele>169.8</ele>
        <time>2020-01-08T13:25:02Z</time>
      </trkpt>
      <trkpt lat="43.5033" lon="6.40496">
        <ele>169.9</ele>
        <time>2020-01-08T13:25:09Z</time>
      </trkpt>
      <trkpt lat="43.50331" lon="6.40509">
        <ele>169.5</ele>
        <time>2020-01-08T13:25:16Z</time>
      </trkpt>
      <trkpt lat="43.50332" lon="6.40524">
        <ele>169.4</ele>
        <time>2020-01-08T13:25:24Z</time>
      </trkpt>
      <trkpt lat="43.5033" lon="6.40536">
        <ele>168.8</ele>
        <time>2020-01-08T13:25:33Z</time>
      </trkpt>
      <trkpt lat="43.50326" lon="6.40548">
        <ele>168.1</ele>
        <time>2020-01-08T13:25:47Z</time>
      </trkpt>
      <trkpt lat="43.50335" lon="6.40544">
        <ele>167.4</ele>
        <time>2020-01-08T13:27:07Z</time>
      </trkpt>
      <trkpt lat="43.50345" lon="6.40548">
        <ele>167.8</ele>
        <time>2020-01-08T13:27:16Z</time>
      </trkpt>
      <trkpt lat="43.50351" lon="6.40559">
        <ele>168.1</ele>
        <time>2020-01-08T13:27:34Z</time>
      </trkpt>
      <trkpt lat="43.50351" lon="6.40571">
        <ele>168.9</ele>
        <time>2020-01-08T13:28:17Z</time>
      </trkpt>
      <trkpt lat="43.50347" lon="6.4056">
        <ele>168.8</ele>
        <time>2020-01-08T13:28:49Z</time>
      </trkpt>
      <trkpt lat="43.50356" lon="6.4056">
        <ele>168.6</ele>
        <time>2020-01-08T13:29:18Z</time>
      </trkpt>
      <trkpt lat="43.50365" lon="6.40557">
        <ele>169</ele>
        <time>2020-01-08T13:29:33Z</time>
      </trkpt>
      <trkpt lat="43.50374" lon="6.40559">
        <ele>169.2</ele>
        <time>2020-01-08T13:29:42Z</time>
      </trkpt>
      <trkpt lat="43.50383" lon="6.4056">
        <ele>169.4</ele>
        <time>2020-01-08T13:29:53Z</time>
      </trkpt>
      <trkpt lat="43.50392" lon="6.4056">
        <ele>169.6</ele>
        <time>2020-01-08T13:30:05Z</time>
      </trkpt>
      <trkpt lat="43.50401" lon="6.40562">
        <ele>170</ele>
        <time>2020-01-08T13:30:14Z</time>
      </trkpt>
      <trkpt lat="43.5041" lon="6.40567">
        <ele>170.4</ele>
        <time>2020-01-08T13:30:23Z</time>
      </trkpt>
      <trkpt lat="43.50418" lon="6.40571">
        <ele>171</ele>
        <time>2020-01-08T13:30:32Z</time>
      </trkpt>
      <trkpt lat="43.50427" lon="6.40578">
        <ele>171.1</ele>
        <time>2020-01-08T13:30:41Z</time>
      </trkpt>
      <trkpt lat="43.50435" lon="6.40585">
        <ele>171.1</ele>
        <time>2020-01-08T13:30:49Z</time>
      </trkpt>
      <trkpt lat="43.50442" lon="6.40593">
        <ele>171.7</ele>
        <time>2020-01-08T13:30:57Z</time>
      </trkpt>
      <trkpt lat="43.50448" lon="6.40604">
        <ele>172</ele>
        <time>2020-01-08T13:31:06Z</time>
      </trkpt>
      <trkpt lat="43.50453" lon="6.40614">
        <ele>173.3</ele>
        <time>2020-01-08T13:31:15Z</time>
      </trkpt>
      <trkpt lat="43.50457" lon="6.40626">
        <ele>173.8</ele>
        <time>2020-01-08T13:31:25Z</time>
      </trkpt>
      <trkpt lat="43.50461" lon="6.40638">
        <ele>174.8</ele>
        <time>2020-01-08T13:31:35Z</time>
      </trkpt>
      <trkpt lat="43.50466" lon="6.40649">
        <ele>175.4</ele>
        <time>2020-01-08T13:31:44Z</time>
      </trkpt>
      <trkpt lat="43.50472" lon="6.4066">
        <ele>176</ele>
        <time>2020-01-08T13:31:53Z</time>
      </trkpt>
      <trkpt lat="43.50477" lon="6.40672">
        <ele>176.6</ele>
        <time>2020-01-08T13:32:04Z</time>
      </trkpt>
      <trkpt lat="43.50484" lon="6.40681">
        <ele>176.6</ele>
        <time>2020-01-08T13:32:14Z</time>
      </trkpt>
      <trkpt lat="43.50493" lon="6.40688">
        <ele>176.2</ele>
        <time>2020-01-08T13:32:23Z</time>
      </trkpt>
      <trkpt lat="43.50501" lon="6.40695">
        <ele>176.3</ele>
        <time>2020-01-08T13:32:32Z</time>
      </trkpt>
      <trkpt lat="43.5051" lon="6.40702">
        <ele>176.8</ele>
        <time>2020-01-08T13:32:45Z</time>
      </trkpt>
      <trkpt lat="43.50518" lon="6.40708">
        <ele>177.4</ele>
        <time>2020-01-08T13:32:56Z</time>
      </trkpt>
      <trkpt lat="43.50525" lon="6.40718">
        <ele>177.6</ele>
        <time>2020-01-08T13:33:03Z</time>
      </trkpt>
      <trkpt lat="43.50532" lon="6.40726">
        <ele>177.6</ele>
        <time>2020-01-08T13:33:11Z</time>
      </trkpt>
      <trkpt lat="43.5054" lon="6.40735">
        <ele>178.1</ele>
        <time>2020-01-08T13:33:20Z</time>
      </trkpt>
      <trkpt lat="43.50546" lon="6.40746">
        <ele>178.3</ele>
        <time>2020-01-08T13:33:28Z</time>
      </trkpt>
      <trkpt lat="43.50552" lon="6.40758">
        <ele>178.8</ele>
        <time>2020-01-08T13:33:36Z</time>
      </trkpt>
      <trkpt lat="43.50556" lon="6.4077">
        <ele>178.8</ele>
        <time>2020-01-08T13:33:43Z</time>
      </trkpt>
      <trkpt lat="43.50559" lon="6.40782">
        <ele>178.9</ele>
        <time>2020-01-08T13:33:51Z</time>
      </trkpt>
      <trkpt lat="43.50565" lon="6.40793">
        <ele>178.9</ele>
        <time>2020-01-08T13:33:59Z</time>
      </trkpt>
      <trkpt lat="43.5057" lon="6.40804">
        <ele>178.7</ele>
        <time>2020-01-08T13:34:07Z</time>
      </trkpt>
      <trkpt lat="43.50577" lon="6.40814">
        <ele>178.8</ele>
        <time>2020-01-08T13:34:15Z</time>
      </trkpt>
      <trkpt lat="43.50581" lon="6.40826">
        <ele>178.9</ele>
        <time>2020-01-08T13:34:24Z</time>
      </trkpt>
      <trkpt lat="43.50586" lon="6.40836">
        <ele>179.2</ele>
        <time>2020-01-08T13:34:33Z</time>
      </trkpt>
      <trkpt lat="43.5059" lon="6.40849">
        <ele>179.3</ele>
        <time>2020-01-08T13:34:42Z</time>
      </trkpt>
      <trkpt lat="43.50593" lon="6.40861">
        <ele>179.8</ele>
        <time>2020-01-08T13:34:51Z</time>
      </trkpt>
      <trkpt lat="43.50594" lon="6.40874">
        <ele>180.3</ele>
        <time>2020-01-08T13:35:00Z</time>
      </trkpt>
      <trkpt lat="43.50595" lon="6.40887">
        <ele>180.7</ele>
        <time>2020-01-08T13:35:10Z</time>
      </trkpt>
      <trkpt lat="43.50594" lon="6.40901">
        <ele>181.7</ele>
        <time>2020-01-08T13:35:20Z</time>
      </trkpt>
      <trkpt lat="43.50593" lon="6.40913">
        <ele>182.5</ele>
        <time>2020-01-08T13:35:30Z</time>
      </trkpt>
      <trkpt lat="43.50589" lon="6.40926">
        <ele>183</ele>
        <time>2020-01-08T13:35:39Z</time>
      </trkpt>
      <trkpt lat="43.50588" lon="6.40939">
        <ele>182.8</ele>
        <time>2020-01-08T13:35:49Z</time>
      </trkpt>
      <trkpt lat="43.5059" lon="6.40952">
        <ele>183.1</ele>
        <time>2020-01-08T13:35:58Z</time>
      </trkpt>
      <trkpt lat="43.50595" lon="6.40963">
        <ele>182.9</ele>
        <time>2020-01-08T13:36:06Z</time>
      </trkpt>
      <trkpt lat="43.50593" lon="6.40976">
        <ele>183.2</ele>
        <time>2020-01-08T13:36:15Z</time>
      </trkpt>
      <trkpt lat="43.50589" lon="6.4099">
        <ele>184</ele>
        <time>2020-01-08T13:36:24Z</time>
      </trkpt>
      <trkpt lat="43.50587" lon="6.41003">
        <ele>184.4</ele>
        <time>2020-01-08T13:36:33Z</time>
      </trkpt>
      <trkpt lat="43.50582" lon="6.41014">
        <ele>184.8</ele>
        <time>2020-01-08T13:36:43Z</time>
      </trkpt>
      <trkpt lat="43.50578" lon="6.41027">
        <ele>185.4</ele>
        <time>2020-01-08T13:36:55Z</time>
      </trkpt>
      <trkpt lat="43.50576" lon="6.41039">
        <ele>185.9</ele>
        <time>2020-01-08T13:37:08Z</time>
      </trkpt>
      <trkpt lat="43.50577" lon="6.41051">
        <ele>186.6</ele>
        <time>2020-01-08T13:37:22Z</time>
      </trkpt>
      <trkpt lat="43.50574" lon="6.41063">
        <ele>187.5</ele>
        <time>2020-01-08T13:37:37Z</time>
      </trkpt>
      <trkpt lat="43.50572" lon="6.41076">
        <ele>188.1</ele>
        <time>2020-01-08T13:37:49Z</time>
      </trkpt>
      <trkpt lat="43.50572" lon="6.41089">
        <ele>189</ele>
        <time>2020-01-08T13:38:02Z</time>
      </trkpt>
      <trkpt lat="43.5057" lon="6.41102">
        <ele>189.3</ele>
        <time>2020-01-08T13:38:14Z</time>
      </trkpt>
      <trkpt lat="43.50568" lon="6.41114">
        <ele>190</ele>
        <time>2020-01-08T13:38:24Z</time>
      </trkpt>
      <trkpt lat="43.50565" lon="6.41127">
        <ele>190.6</ele>
        <time>2020-01-08T13:38:37Z</time>
      </trkpt>
      <trkpt lat="43.50567" lon="6.41139">
        <ele>190.7</ele>
        <time>2020-01-08T13:38:48Z</time>
      </trkpt>
      <trkpt lat="43.50565" lon="6.41152">
        <ele>191</ele>
        <time>2020-01-08T13:39:00Z</time>
      </trkpt>
      <trkpt lat="43.50561" lon="6.41164">
        <ele>191.7</ele>
        <time>2020-01-08T13:39:11Z</time>
      </trkpt>
      <trkpt lat="43.50556" lon="6.41175">
        <ele>192.6</ele>
        <time>2020-01-08T13:39:24Z</time>
      </trkpt>
      <trkpt lat="43.5055" lon="6.41185">
        <ele>193.4</ele>
        <time>2020-01-08T13:39:36Z</time>
      </trkpt>
      <trkpt lat="43.50547" lon="6.41197">
        <ele>194.5</ele>
        <time>2020-01-08T13:39:50Z</time>
      </trkpt>
      <trkpt lat="43.50541" lon="6.41206">
        <ele>195.5</ele>
        <time>2020-01-08T13:40:01Z</time>
      </trkpt>
      <trkpt lat="43.50533" lon="6.41214">
        <ele>196.2</ele>
        <time>2020-01-08T13:40:11Z</time>
      </trkpt>
      <trkpt lat="43.50525" lon="6.41221">
        <ele>196.7</ele>
        <time>2020-01-08T13:40:19Z</time>
      </trkpt>
      <trkpt lat="43.50517" lon="6.41229">
        <ele>197.5</ele>
        <time>2020-01-08T13:40:27Z</time>
      </trkpt>
      <trkpt lat="43.50515" lon="6.41242">
        <ele>198.7</ele>
        <time>2020-01-08T13:40:40Z</time>
      </trkpt>
      <trkpt lat="43.50512" lon="6.41253">
        <ele>199.9</ele>
        <time>2020-01-08T13:40:53Z</time>
      </trkpt>
      <trkpt lat="43.50507" lon="6.41265">
        <ele>200.4</ele>
        <time>2020-01-08T13:41:04Z</time>
      </trkpt>
      <trkpt lat="43.50505" lon="6.41277">
        <ele>201.8</ele>
        <time>2020-01-08T13:41:17Z</time>
      </trkpt>
      <trkpt lat="43.50502" lon="6.41289">
        <ele>202.8</ele>
        <time>2020-01-08T13:41:29Z</time>
      </trkpt>
      <trkpt lat="43.505" lon="6.41302">
        <ele>204</ele>
        <time>2020-01-08T13:41:40Z</time>
      </trkpt>
      <trkpt lat="43.50498" lon="6.41314">
        <ele>205</ele>
        <time>2020-01-08T13:41:54Z</time>
      </trkpt>
      <trkpt lat="43.50489" lon="6.41316">
        <ele>206.1</ele>
        <time>2020-01-08T13:42:23Z</time>
      </trkpt>
      <trkpt lat="43.50496" lon="6.41324">
        <ele>206.7</ele>
        <time>2020-01-08T13:43:29Z</time>
      </trkpt>
      <trkpt lat="43.50505" lon="6.41327">
        <ele>206</ele>
        <time>2020-01-08T13:43:38Z</time>
      </trkpt>
      <trkpt lat="43.50515" lon="6.41324">
        <ele>205.2</ele>
        <time>2020-01-08T13:43:50Z</time>
      </trkpt>
      <trkpt lat="43.50525" lon="6.41322">
        <ele>204.4</ele>
        <time>2020-01-08T13:44:01Z</time>
      </trkpt>
      <trkpt lat="43.50534" lon="6.41319">
        <ele>203.9</ele>
        <time>2020-01-08T13:44:15Z</time>
      </trkpt>
      <trkpt lat="43.50543" lon="6.41318">
        <ele>203.4</ele>
        <time>2020-01-08T13:44:29Z</time>
      </trkpt>
      <trkpt lat="43.50552" lon="6.41313">
        <ele>203.3</ele>
        <time>2020-01-08T13:44:38Z</time>
      </trkpt>
      <trkpt lat="43.50559" lon="6.41305">
        <ele>203.3</ele>
        <time>2020-01-08T13:44:47Z</time>
      </trkpt>
      <trkpt lat="43.50567" lon="6.41296">
        <ele>203.7</ele>
        <time>2020-01-08T13:44:59Z</time>
      </trkpt>
      <trkpt lat="43.50575" lon="6.41292">
        <ele>204.1</ele>
        <time>2020-01-08T13:45:17Z</time>
      </trkpt>
      <trkpt lat="43.50584" lon="6.41289">
        <ele>204.2</ele>
        <time>2020-01-08T13:45:56Z</time>
      </trkpt>
      <trkpt lat="43.50592" lon="6.41281">
        <ele>204.7</ele>
        <time>2020-01-08T13:47:32Z</time>
      </trkpt>
      <trkpt lat="43.50601" lon="6.41283">
        <ele>205.4</ele>
        <time>2020-01-08T13:50:08Z</time>
      </trkpt>
      <trkpt lat="43.50608" lon="6.41274">
        <ele>206.9</ele>
        <time>2020-01-08T13:50:26Z</time>
      </trkpt>
      <trkpt lat="43.50611" lon="6.41262">
        <ele>207.8</ele>
        <time>2020-01-08T13:50:38Z</time>
      </trkpt>
      <trkpt lat="43.50615" lon="6.41251">
        <ele>207.4</ele>
        <time>2020-01-08T13:50:47Z</time>
      </trkpt>
      <trkpt lat="43.50619" lon="6.41238">
        <ele>207.4</ele>
        <time>2020-01-08T13:50:56Z</time>
      </trkpt>
      <trkpt lat="43.50622" lon="6.41227">
        <ele>207.8</ele>
        <time>2020-01-08T13:51:05Z</time>
      </trkpt>
      <trkpt lat="43.50623" lon="6.41214">
        <ele>207.2</ele>
        <time>2020-01-08T13:51:14Z</time>
      </trkpt>
      <trkpt lat="43.50623" lon="6.412">
        <ele>206</ele>
        <time>2020-01-08T13:51:25Z</time>
      </trkpt>
      <trkpt lat="43.50625" lon="6.41188">
        <ele>205.1</ele>
        <time>2020-01-08T13:51:35Z</time>
      </trkpt>
      <trkpt lat="43.50625" lon="6.41175">
        <ele>204</ele>
        <time>2020-01-08T13:51:46Z</time>
      </trkpt>
      <trkpt lat="43.50627" lon="6.41162">
        <ele>203.1</ele>
        <time>2020-01-08T13:51:56Z</time>
      </trkpt>
      <trkpt lat="43.50627" lon="6.41149">
        <ele>202</ele>
        <time>2020-01-08T13:52:06Z</time>
      </trkpt>
      <trkpt lat="43.5063" lon="6.41137">
        <ele>201</ele>
        <time>2020-01-08T13:52:14Z</time>
      </trkpt>
      <trkpt lat="43.50637" lon="6.41127">
        <ele>200.7</ele>
        <time>2020-01-08T13:52:22Z</time>
      </trkpt>
      <trkpt lat="43.50645" lon="6.41119">
        <ele>200.4</ele>
        <time>2020-01-08T13:52:30Z</time>
      </trkpt>
      <trkpt lat="43.50655" lon="6.41119">
        <ele>200.6</ele>
        <time>2020-01-08T13:52:38Z</time>
      </trkpt>
      <trkpt lat="43.50664" lon="6.41115">
        <ele>201.2</ele>
        <time>2020-01-08T13:52:47Z</time>
      </trkpt>
      <trkpt lat="43.50672" lon="6.41109">
        <ele>201.9</ele>
        <time>2020-01-08T13:52:56Z</time>
      </trkpt>
      <trkpt lat="43.50679" lon="6.411">
        <ele>202.6</ele>
        <time>2020-01-08T13:53:07Z</time>
      </trkpt>
      <trkpt lat="43.50687" lon="6.41092">
        <ele>203</ele>
        <time>2020-01-08T13:53:17Z</time>
      </trkpt>
      <trkpt lat="43.50695" lon="6.41086">
        <ele>202.9</ele>
        <time>2020-01-08T13:53:24Z</time>
      </trkpt>
      <trkpt lat="43.50701" lon="6.41076">
        <ele>202.9</ele>
        <time>2020-01-08T13:53:34Z</time>
      </trkpt>
      <trkpt lat="43.50709" lon="6.41068">
        <ele>202.6</ele>
        <time>2020-01-08T13:53:43Z</time>
      </trkpt>
      <trkpt lat="43.50718" lon="6.41063">
        <ele>202</ele>
        <time>2020-01-08T13:53:51Z</time>
      </trkpt>
      <trkpt lat="43.50726" lon="6.41056">
        <ele>202.3</ele>
        <time>2020-01-08T13:53:58Z</time>
      </trkpt>
      <trkpt lat="43.50735" lon="6.41053">
        <ele>202.1</ele>
        <time>2020-01-08T13:54:06Z</time>
      </trkpt>
      <trkpt lat="43.50744" lon="6.41051">
        <ele>202</ele>
        <time>2020-01-08T13:54:13Z</time>
      </trkpt>
      <trkpt lat="43.50754" lon="6.41048">
        <ele>202.4</ele>
        <time>2020-01-08T13:54:20Z</time>
      </trkpt>
      <trkpt lat="43.50763" lon="6.41043">
        <ele>202.9</ele>
        <time>2020-01-08T13:54:27Z</time>
      </trkpt>
      <trkpt lat="43.50772" lon="6.41036">
        <ele>204</ele>
        <time>2020-01-08T13:54:38Z</time>
      </trkpt>
      <trkpt lat="43.50782" lon="6.41034">
        <ele>205.2</ele>
        <time>2020-01-08T13:54:47Z</time>
      </trkpt>
      <trkpt lat="43.50791" lon="6.41032">
        <ele>206.8</ele>
        <time>2020-01-08T13:54:57Z</time>
      </trkpt>
      <trkpt lat="43.508" lon="6.41025">
        <ele>208.9</ele>
        <time>2020-01-08T13:55:10Z</time>
      </trkpt>
      <trkpt lat="43.50807" lon="6.41017">
        <ele>209.9</ele>
        <time>2020-01-08T13:55:21Z</time>
      </trkpt>
      <trkpt lat="43.50816" lon="6.41012">
        <ele>211.3</ele>
        <time>2020-01-08T13:55:33Z</time>
      </trkpt>
      <trkpt lat="43.50824" lon="6.41006">
        <ele>213.1</ele>
        <time>2020-01-08T13:55:43Z</time>
      </trkpt>
      <trkpt lat="43.50831" lon="6.40997">
        <ele>214.4</ele>
        <time>2020-01-08T13:55:54Z</time>
      </trkpt>
      <trkpt lat="43.50839" lon="6.40989">
        <ele>215.8</ele>
        <time>2020-01-08T13:56:05Z</time>
      </trkpt>
      <trkpt lat="43.50846" lon="6.4098">
        <ele>216.5</ele>
        <time>2020-01-08T13:56:13Z</time>
      </trkpt>
      <trkpt lat="43.50854" lon="6.40972">
        <ele>216.4</ele>
        <time>2020-01-08T13:56:22Z</time>
      </trkpt>
      <trkpt lat="43.50864" lon="6.40969">
        <ele>215.8</ele>
        <time>2020-01-08T13:56:30Z</time>
      </trkpt>
      <trkpt lat="43.50874" lon="6.40965">
        <ele>215.9</ele>
        <time>2020-01-08T13:56:39Z</time>
      </trkpt>
      <trkpt lat="43.50883" lon="6.40964">
        <ele>216.7</ele>
        <time>2020-01-08T13:56:50Z</time>
      </trkpt>
      <trkpt lat="43.50893" lon="6.40964">
        <ele>217.9</ele>
        <time>2020-01-08T13:56:59Z</time>
      </trkpt>
      <trkpt lat="43.50902" lon="6.4096">
        <ele>218.8</ele>
        <time>2020-01-08T13:57:10Z</time>
      </trkpt>
      <trkpt lat="43.50911" lon="6.40962">
        <ele>218.7</ele>
        <time>2020-01-08T13:57:17Z</time>
      </trkpt>
      <trkpt lat="43.5092" lon="6.40963">
        <ele>218.4</ele>
        <time>2020-01-08T13:57:24Z</time>
      </trkpt>
      <trkpt lat="43.50928" lon="6.40958">
        <ele>216.6</ele>
        <time>2020-01-08T13:57:33Z</time>
      </trkpt>
      <trkpt lat="43.50936" lon="6.40952">
        <ele>215.2</ele>
        <time>2020-01-08T13:57:41Z</time>
      </trkpt>
      <trkpt lat="43.50945" lon="6.40946">
        <ele>214</ele>
        <time>2020-01-08T13:57:50Z</time>
      </trkpt>
      <trkpt lat="43.50953" lon="6.4094">
        <ele>213.4</ele>
        <time>2020-01-08T13:57:57Z</time>
      </trkpt>
      <trkpt lat="43.50962" lon="6.40937">
        <ele>212.8</ele>
        <time>2020-01-08T13:58:04Z</time>
      </trkpt>
      <trkpt lat="43.50971" lon="6.40932">
        <ele>212.4</ele>
        <time>2020-01-08T13:58:15Z</time>
      </trkpt>
      <trkpt lat="43.5098" lon="6.40927">
        <ele>212.7</ele>
        <time>2020-01-08T13:58:26Z</time>
      </trkpt>
      <trkpt lat="43.5099" lon="6.40926">
        <ele>213.3</ele>
        <time>2020-01-08T13:58:35Z</time>
      </trkpt>
      <trkpt lat="43.50998" lon="6.4092">
        <ele>215.2</ele>
        <time>2020-01-08T13:58:49Z</time>
      </trkpt>
      <trkpt lat="43.51007" lon="6.40918">
        <ele>216.3</ele>
        <time>2020-01-08T13:59:00Z</time>
      </trkpt>
      <trkpt lat="43.51017" lon="6.40918">
        <ele>217.8</ele>
        <time>2020-01-08T13:59:12Z</time>
      </trkpt>
      <trkpt lat="43.51026" lon="6.40917">
        <ele>219</ele>
        <time>2020-01-08T13:59:24Z</time>
      </trkpt>
      <trkpt lat="43.51035" lon="6.40919">
        <ele>219.7</ele>
        <time>2020-01-08T13:59:37Z</time>
      </trkpt>
      <trkpt lat="43.51045" lon="6.4092">
        <ele>221.1</ele>
        <time>2020-01-08T13:59:52Z</time>
      </trkpt>
      <trkpt lat="43.51054" lon="6.40919">
        <ele>223</ele>
        <time>2020-01-08T14:00:08Z</time>
      </trkpt>
      <trkpt lat="43.51063" lon="6.40923">
        <ele>224.8</ele>
        <time>2020-01-08T14:00:20Z</time>
      </trkpt>
      <trkpt lat="43.51071" lon="6.40927">
        <ele>226.1</ele>
        <time>2020-01-08T14:00:30Z</time>
      </trkpt>
      <trkpt lat="43.5108" lon="6.40931">
        <ele>227.7</ele>
        <time>2020-01-08T14:00:40Z</time>
      </trkpt>
      <trkpt lat="43.51089" lon="6.40935">
        <ele>229</ele>
        <time>2020-01-08T14:00:50Z</time>
      </trkpt>
      <trkpt lat="43.51098" lon="6.40938">
        <ele>230.1</ele>
        <time>2020-01-08T14:00:59Z</time>
      </trkpt>
      <trkpt lat="43.51108" lon="6.40939">
        <ele>230.5</ele>
        <time>2020-01-08T14:01:06Z</time>
      </trkpt>
      <trkpt lat="43.51117" lon="6.4094">
        <ele>231.4</ele>
        <time>2020-01-08T14:01:15Z</time>
      </trkpt>
      <trkpt lat="43.51126" lon="6.40943">
        <ele>232.6</ele>
        <time>2020-01-08T14:01:32Z</time>
      </trkpt>
      <trkpt lat="43.5113" lon="6.40954">
        <ele>232.6</ele>
        <time>2020-01-08T14:01:41Z</time>
      </trkpt>
      <trkpt lat="43.51126" lon="6.40967">
        <ele>233.2</ele>
        <time>2020-01-08T14:01:55Z</time>
      </trkpt>
      <trkpt lat="43.51119" lon="6.40975">
        <ele>234.2</ele>
        <time>2020-01-08T14:02:10Z</time>
      </trkpt>
      <trkpt lat="43.51114" lon="6.40985">
        <ele>235.8</ele>
        <time>2020-01-08T14:02:24Z</time>
      </trkpt>
      <trkpt lat="43.51111" lon="6.40997">
        <ele>237.5</ele>
        <time>2020-01-08T14:02:38Z</time>
      </trkpt>
      <trkpt lat="43.51104" lon="6.41006">
        <ele>239.3</ele>
        <time>2020-01-08T14:02:51Z</time>
      </trkpt>
      <trkpt lat="43.51099" lon="6.41017">
        <ele>241.4</ele>
        <time>2020-01-08T14:03:05Z</time>
      </trkpt>
      <trkpt lat="43.51092" lon="6.41024">
        <ele>242.7</ele>
        <time>2020-01-08T14:03:16Z</time>
      </trkpt>
      <trkpt lat="43.51083" lon="6.41031">
        <ele>243.7</ele>
        <time>2020-01-08T14:03:25Z</time>
      </trkpt>
      <trkpt lat="43.51074" lon="6.41038">
        <ele>244.7</ele>
        <time>2020-01-08T14:03:35Z</time>
      </trkpt>
      <trkpt lat="43.51066" lon="6.41043">
        <ele>245.8</ele>
        <time>2020-01-08T14:03:49Z</time>
      </trkpt>
      <trkpt lat="43.51057" lon="6.41049">
        <ele>246.5</ele>
        <time>2020-01-08T14:04:02Z</time>
      </trkpt>
      <trkpt lat="43.51049" lon="6.41054">
        <ele>247</ele>
        <time>2020-01-08T14:04:19Z</time>
      </trkpt>
      <trkpt lat="43.5104" lon="6.41054">
        <ele>246.6</ele>
        <time>2020-01-08T14:05:04Z</time>
      </trkpt>
      <trkpt lat="43.51037" lon="6.41066">
        <ele>248.4</ele>
        <time>2020-01-08T14:07:01Z</time>
      </trkpt>
      <trkpt lat="43.51038" lon="6.4108">
        <ele>250.4</ele>
        <time>2020-01-08T14:07:14Z</time>
      </trkpt>
      <trkpt lat="43.51041" lon="6.41091">
        <ele>252.1</ele>
        <time>2020-01-08T14:07:26Z</time>
      </trkpt>
      <trkpt lat="43.51037" lon="6.41103">
        <ele>253.8</ele>
        <time>2020-01-08T14:07:38Z</time>
      </trkpt>
      <trkpt lat="43.5103" lon="6.41113">
        <ele>254.9</ele>
        <time>2020-01-08T14:07:47Z</time>
      </trkpt>
      <trkpt lat="43.51024" lon="6.41123">
        <ele>255.8</ele>
        <time>2020-01-08T14:07:57Z</time>
      </trkpt>
      <trkpt lat="43.51018" lon="6.41132">
        <ele>256.7</ele>
        <time>2020-01-08T14:08:06Z</time>
      </trkpt>
      <trkpt lat="43.51012" lon="6.41141">
        <ele>257.4</ele>
        <time>2020-01-08T14:08:16Z</time>
      </trkpt>
      <trkpt lat="43.51012" lon="6.41154">
        <ele>259.9</ele>
        <time>2020-01-08T14:08:32Z</time>
      </trkpt>
      <trkpt lat="43.51014" lon="6.41167">
        <ele>261.1</ele>
        <time>2020-01-08T14:08:42Z</time>
      </trkpt>
      <trkpt lat="43.51015" lon="6.4118">
        <ele>262.3</ele>
        <time>2020-01-08T14:08:52Z</time>
      </trkpt>
      <trkpt lat="43.51013" lon="6.41193">
        <ele>263.4</ele>
        <time>2020-01-08T14:09:03Z</time>
      </trkpt>
      <trkpt lat="43.51009" lon="6.41205">
        <ele>264</ele>
        <time>2020-01-08T14:09:14Z</time>
      </trkpt>
      <trkpt lat="43.51009" lon="6.41217">
        <ele>264.5</ele>
        <time>2020-01-08T14:10:03Z</time>
      </trkpt>
      <trkpt lat="43.51017" lon="6.41221">
        <ele>263.9</ele>
        <time>2020-01-08T14:10:53Z</time>
      </trkpt>
      <trkpt lat="43.51024" lon="6.41212">
        <ele>263.9</ele>
        <time>2020-01-08T14:11:05Z</time>
      </trkpt>
      <trkpt lat="43.51033" lon="6.41206">
        <ele>263.1</ele>
        <time>2020-01-08T14:11:16Z</time>
      </trkpt>
      <trkpt lat="43.51041" lon="6.41198">
        <ele>262.3</ele>
        <time>2020-01-08T14:11:28Z</time>
      </trkpt>
      <trkpt lat="43.5105" lon="6.41195">
        <ele>261.8</ele>
        <time>2020-01-08T14:11:37Z</time>
      </trkpt>
      <trkpt lat="43.51059" lon="6.41194">
        <ele>261.5</ele>
        <time>2020-01-08T14:11:44Z</time>
      </trkpt>
      <trkpt lat="43.51068" lon="6.41191">
        <ele>261.3</ele>
        <time>2020-01-08T14:11:53Z</time>
      </trkpt>
      <trkpt lat="43.51077" lon="6.41187">
        <ele>261</ele>
        <time>2020-01-08T14:12:02Z</time>
      </trkpt>
      <trkpt lat="43.51084" lon="6.41178">
        <ele>260.3</ele>
        <time>2020-01-08T14:12:12Z</time>
      </trkpt>
      <trkpt lat="43.51092" lon="6.4117">
        <ele>259.8</ele>
        <time>2020-01-08T14:12:21Z</time>
      </trkpt>
      <trkpt lat="43.51099" lon="6.41162">
        <ele>259.4</ele>
        <time>2020-01-08T14:12:30Z</time>
      </trkpt>
      <trkpt lat="43.51106" lon="6.41154">
        <ele>259.1</ele>
        <time>2020-01-08T14:12:40Z</time>
      </trkpt>
      <trkpt lat="43.51113" lon="6.41145">
        <ele>258.2</ele>
        <time>2020-01-08T14:12:50Z</time>
      </trkpt>
      <trkpt lat="43.51119" lon="6.41136">
        <ele>257.3</ele>
        <time>2020-01-08T14:12:59Z</time>
      </trkpt>
      <trkpt lat="43.51126" lon="6.41127">
        <ele>256.1</ele>
        <time>2020-01-08T14:13:10Z</time>
      </trkpt>
      <trkpt lat="43.51133" lon="6.41118">
        <ele>255.5</ele>
        <time>2020-01-08T14:13:19Z</time>
      </trkpt>
      <trkpt lat="43.51142" lon="6.41121">
        <ele>255.2</ele>
        <time>2020-01-08T14:13:28Z</time>
      </trkpt>
      <trkpt lat="43.51151" lon="6.41126">
        <ele>255.1</ele>
        <time>2020-01-08T14:13:38Z</time>
      </trkpt>
      <trkpt lat="43.5116" lon="6.41127">
        <ele>254.6</ele>
        <time>2020-01-08T14:13:48Z</time>
      </trkpt>
      <trkpt lat="43.51169" lon="6.41125">
        <ele>254.6</ele>
        <time>2020-01-08T14:13:58Z</time>
      </trkpt>
      <trkpt lat="43.51179" lon="6.41122">
        <ele>254.8</ele>
        <time>2020-01-08T14:14:07Z</time>
      </trkpt>
      <trkpt lat="43.51188" lon="6.4112">
        <ele>254.8</ele>
        <time>2020-01-08T14:14:15Z</time>
      </trkpt>
      <trkpt lat="43.51197" lon="6.41117">
        <ele>254.6</ele>
        <time>2020-01-08T14:14:24Z</time>
      </trkpt>
      <trkpt lat="43.51206" lon="6.41112">
        <ele>255.3</ele>
        <time>2020-01-08T14:14:32Z</time>
      </trkpt>
      <trkpt lat="43.51215" lon="6.41111">
        <ele>255.3</ele>
        <time>2020-01-08T14:14:40Z</time>
      </trkpt>
      <trkpt lat="43.51224" lon="6.41108">
        <ele>255.6</ele>
        <time>2020-01-08T14:14:49Z</time>
      </trkpt>
      <trkpt lat="43.51232" lon="6.41101">
        <ele>256.3</ele>
        <time>2020-01-08T14:14:58Z</time>
      </trkpt>
      <trkpt lat="43.51241" lon="6.41097">
        <ele>256.4</ele>
        <time>2020-01-08T14:15:06Z</time>
      </trkpt>
      <trkpt lat="43.51249" lon="6.41092">
        <ele>256.7</ele>
        <time>2020-01-08T14:15:14Z</time>
      </trkpt>
      <trkpt lat="43.51258" lon="6.41089">
        <ele>256.9</ele>
        <time>2020-01-08T14:15:23Z</time>
      </trkpt>
      <trkpt lat="43.51268" lon="6.41085">
        <ele>257.5</ele>
        <time>2020-01-08T14:15:32Z</time>
      </trkpt>
      <trkpt lat="43.51276" lon="6.41082">
        <ele>257.6</ele>
        <time>2020-01-08T14:15:40Z</time>
      </trkpt>
      <trkpt lat="43.51286" lon="6.41079">
        <ele>257.3</ele>
        <time>2020-01-08T14:15:49Z</time>
      </trkpt>
      <trkpt lat="43.51294" lon="6.41074">
        <ele>257.5</ele>
        <time>2020-01-08T14:15:59Z</time>
      </trkpt>
      <trkpt lat="43.51304" lon="6.41071">
        <ele>257.2</ele>
        <time>2020-01-08T14:16:10Z</time>
      </trkpt>
      <trkpt lat="43.51312" lon="6.41075">
        <ele>257.1</ele>
        <time>2020-01-08T14:16:20Z</time>
      </trkpt>
      <trkpt lat="43.51322" lon="6.41074">
        <ele>257.3</ele>
        <time>2020-01-08T14:16:27Z</time>
      </trkpt>
      <trkpt lat="43.51331" lon="6.4107">
        <ele>257.5</ele>
        <time>2020-01-08T14:16:36Z</time>
      </trkpt>
      <trkpt lat="43.51341" lon="6.41071">
        <ele>257.4</ele>
        <time>2020-01-08T14:16:46Z</time>
      </trkpt>
      <trkpt lat="43.51349" lon="6.41076">
        <ele>257.3</ele>
        <time>2020-01-08T14:16:55Z</time>
      </trkpt>
      <trkpt lat="43.51358" lon="6.41082">
        <ele>256.7</ele>
        <time>2020-01-08T14:17:03Z</time>
      </trkpt>
      <trkpt lat="43.51367" lon="6.41089">
        <ele>256.8</ele>
        <time>2020-01-08T14:17:13Z</time>
      </trkpt>
      <trkpt lat="43.51375" lon="6.41097">
        <ele>256.3</ele>
        <time>2020-01-08T14:17:21Z</time>
      </trkpt>
      <trkpt lat="43.51383" lon="6.41105">
        <ele>255.6</ele>
        <time>2020-01-08T14:17:29Z</time>
      </trkpt>
      <trkpt lat="43.51391" lon="6.41113">
        <ele>255.1</ele>
        <time>2020-01-08T14:17:38Z</time>
      </trkpt>
      <trkpt lat="43.51399" lon="6.41121">
        <ele>254.5</ele>
        <time>2020-01-08T14:17:47Z</time>
      </trkpt>
      <trkpt lat="43.51406" lon="6.4113">
        <ele>253.2</ele>
        <time>2020-01-08T14:17:57Z</time>
      </trkpt>
      <trkpt lat="43.51412" lon="6.41139">
        <ele>251.9</ele>
        <time>2020-01-08T14:18:07Z</time>
      </trkpt>
      <trkpt lat="43.51419" lon="6.41147">
        <ele>251.3</ele>
        <time>2020-01-08T14:18:17Z</time>
      </trkpt>
      <trkpt lat="43.51427" lon="6.41155">
        <ele>249.9</ele>
        <time>2020-01-08T14:18:26Z</time>
      </trkpt>
      <trkpt lat="43.51435" lon="6.41161">
        <ele>248.9</ele>
        <time>2020-01-08T14:18:35Z</time>
      </trkpt>
      <trkpt lat="43.51443" lon="6.41169">
        <ele>248.5</ele>
        <time>2020-01-08T14:18:44Z</time>
      </trkpt>
      <trkpt lat="43.5145" lon="6.41178">
        <ele>248.4</ele>
        <time>2020-01-08T14:18:51Z</time>
      </trkpt>
      <trkpt lat="43.51455" lon="6.41188">
        <ele>248.2</ele>
        <time>2020-01-08T14:18:59Z</time>
      </trkpt>
      <trkpt lat="43.5146" lon="6.41199">
        <ele>248.2</ele>
        <time>2020-01-08T14:19:07Z</time>
      </trkpt>
      <trkpt lat="43.51461" lon="6.41212">
        <ele>248.4</ele>
        <time>2020-01-08T14:19:14Z</time>
      </trkpt>
      <trkpt lat="43.51469" lon="6.41206">
        <ele>248.5</ele>
        <time>2020-01-08T14:20:39Z</time>
      </trkpt>
      <trkpt lat="43.51478" lon="6.41205">
        <ele>248.5</ele>
        <time>2020-01-08T14:20:49Z</time>
      </trkpt>
      <trkpt lat="43.51487" lon="6.41201">
        <ele>248.6</ele>
        <time>2020-01-08T14:21:04Z</time>
      </trkpt>
      <trkpt lat="43.51495" lon="6.41194">
        <ele>249</ele>
        <time>2020-01-08T14:21:15Z</time>
      </trkpt>
      <trkpt lat="43.51501" lon="6.41183">
        <ele>249.1</ele>
        <time>2020-01-08T14:21:28Z</time>
      </trkpt>
      <trkpt lat="43.51507" lon="6.41172">
        <ele>248.6</ele>
        <time>2020-01-08T14:21:40Z</time>
      </trkpt>
      <trkpt lat="43.51514" lon="6.41164">
        <ele>248.2</ele>
        <time>2020-01-08T14:21:49Z</time>
      </trkpt>
      <trkpt lat="43.51522" lon="6.41157">
        <ele>248.1</ele>
        <time>2020-01-08T14:21:58Z</time>
      </trkpt>
      <trkpt lat="43.5153" lon="6.41148">
        <ele>247.8</ele>
        <time>2020-01-08T14:22:07Z</time>
      </trkpt>
      <trkpt lat="43.51536" lon="6.41137">
        <ele>246.8</ele>
        <time>2020-01-08T14:22:15Z</time>
      </trkpt>
      <trkpt lat="43.51542" lon="6.41128">
        <ele>246.5</ele>
        <time>2020-01-08T14:22:22Z</time>
      </trkpt>
      <trkpt lat="43.51549" lon="6.41119">
        <ele>246.1</ele>
        <time>2020-01-08T14:22:29Z</time>
      </trkpt>
      <trkpt lat="43.51555" lon="6.41108">
        <ele>245.7</ele>
        <time>2020-01-08T14:22:38Z</time>
      </trkpt>
      <trkpt lat="43.51562" lon="6.41099">
        <ele>245.6</ele>
        <time>2020-01-08T14:22:45Z</time>
      </trkpt>
      <trkpt lat="43.51569" lon="6.4109">
        <ele>245.5</ele>
        <time>2020-01-08T14:22:53Z</time>
      </trkpt>
      <trkpt lat="43.51577" lon="6.41083">
        <ele>245.2</ele>
        <time>2020-01-08T14:23:01Z</time>
      </trkpt>
      <trkpt lat="43.51585" lon="6.41077">
        <ele>244.9</ele>
        <time>2020-01-08T14:23:16Z</time>
      </trkpt>
      <trkpt lat="43.51593" lon="6.4107">
        <ele>244.7</ele>
        <time>2020-01-08T14:23:34Z</time>
      </trkpt>
      <trkpt lat="43.516" lon="6.41061">
        <ele>244</ele>
        <time>2020-01-08T14:23:47Z</time>
      </trkpt>
      <trkpt lat="43.51606" lon="6.4105">
        <ele>243.5</ele>
        <time>2020-01-08T14:23:58Z</time>
      </trkpt>
      <trkpt lat="43.51614" lon="6.41044">
        <ele>243.5</ele>
        <time>2020-01-08T14:24:07Z</time>
      </trkpt>
      <trkpt lat="43.51621" lon="6.41037">
        <ele>243.1</ele>
        <time>2020-01-08T14:24:17Z</time>
      </trkpt>
      <trkpt lat="43.5163" lon="6.4103">
        <ele>242.7</ele>
        <time>2020-01-08T14:24:27Z</time>
      </trkpt>
      <trkpt lat="43.51639" lon="6.41025">
        <ele>242.1</ele>
        <time>2020-01-08T14:24:35Z</time>
      </trkpt>
      <trkpt lat="43.51648" lon="6.41021">
        <ele>242</ele>
        <time>2020-01-08T14:24:45Z</time>
      </trkpt>
      <trkpt lat="43.51658" lon="6.41017">
        <ele>241.1</ele>
        <time>2020-01-08T14:24:56Z</time>
      </trkpt>
      <trkpt lat="43.51666" lon="6.41012">
        <ele>241</ele>
        <time>2020-01-08T14:25:05Z</time>
      </trkpt>
      <trkpt lat="43.51675" lon="6.41008">
        <ele>240.4</ele>
        <time>2020-01-08T14:25:16Z</time>
      </trkpt>
      <trkpt lat="43.51684" lon="6.41002">
        <ele>239.8</ele>
        <time>2020-01-08T14:25:28Z</time>
      </trkpt>
      <trkpt lat="43.51693" lon="6.40998">
        <ele>239.1</ele>
        <time>2020-01-08T14:25:39Z</time>
      </trkpt>
      <trkpt lat="43.51701" lon="6.40993">
        <ele>238.3</ele>
        <time>2020-01-08T14:25:51Z</time>
      </trkpt>
      <trkpt lat="43.51707" lon="6.40982">
        <ele>237.3</ele>
        <time>2020-01-08T14:26:06Z</time>
      </trkpt>
      <trkpt lat="43.51714" lon="6.40974">
        <ele>236.6</ele>
        <time>2020-01-08T14:26:14Z</time>
      </trkpt>
      <trkpt lat="43.51722" lon="6.40967">
        <ele>236.4</ele>
        <time>2020-01-08T14:26:23Z</time>
      </trkpt>
      <trkpt lat="43.5173" lon="6.40959">
        <ele>236.2</ele>
        <time>2020-01-08T14:26:34Z</time>
      </trkpt>
      <trkpt lat="43.51738" lon="6.40951">
        <ele>236.2</ele>
        <time>2020-01-08T14:26:44Z</time>
      </trkpt>
      <trkpt lat="43.51745" lon="6.40942">
        <ele>235.7</ele>
        <time>2020-01-08T14:26:55Z</time>
      </trkpt>
      <trkpt lat="43.51752" lon="6.40933">
        <ele>235</ele>
        <time>2020-01-08T14:27:06Z</time>
      </trkpt>
      <trkpt lat="43.5176" lon="6.40924">
        <ele>234.3</ele>
        <time>2020-01-08T14:27:16Z</time>
      </trkpt>
      <trkpt lat="43.51766" lon="6.40916">
        <ele>233.9</ele>
        <time>2020-01-08T14:27:26Z</time>
      </trkpt>
      <trkpt lat="43.51775" lon="6.40909">
        <ele>233.7</ele>
        <time>2020-01-08T14:27:35Z</time>
      </trkpt>
      <trkpt lat="43.51783" lon="6.40902">
        <ele>232.9</ele>
        <time>2020-01-08T14:27:45Z</time>
      </trkpt>
      <trkpt lat="43.51792" lon="6.40897">
        <ele>232.4</ele>
        <time>2020-01-08T14:27:54Z</time>
      </trkpt>
      <trkpt lat="43.51801" lon="6.40893">
        <ele>232</ele>
        <time>2020-01-08T14:28:04Z</time>
      </trkpt>
      <trkpt lat="43.5181" lon="6.40891">
        <ele>231.1</ele>
        <time>2020-01-08T14:28:15Z</time>
      </trkpt>
      <trkpt lat="43.51819" lon="6.4089">
        <ele>230.5</ele>
        <time>2020-01-08T14:28:25Z</time>
      </trkpt>
      <trkpt lat="43.51829" lon="6.40885">
        <ele>230</ele>
        <time>2020-01-08T14:28:35Z</time>
      </trkpt>
      <trkpt lat="43.51838" lon="6.40881">
        <ele>229.5</ele>
        <time>2020-01-08T14:28:45Z</time>
      </trkpt>
      <trkpt lat="43.51846" lon="6.40877">
        <ele>229</ele>
        <time>2020-01-08T14:28:54Z</time>
      </trkpt>
      <trkpt lat="43.51856" lon="6.40875">
        <ele>228.6</ele>
        <time>2020-01-08T14:29:02Z</time>
      </trkpt>
      <trkpt lat="43.51865" lon="6.40876">
        <ele>228.4</ele>
        <time>2020-01-08T14:29:10Z</time>
      </trkpt>
      <trkpt lat="43.51875" lon="6.40878">
        <ele>227.9</ele>
        <time>2020-01-08T14:29:20Z</time>
      </trkpt>
      <trkpt lat="43.51884" lon="6.4088">
        <ele>227.5</ele>
        <time>2020-01-08T14:29:29Z</time>
      </trkpt>
      <trkpt lat="43.51893" lon="6.40886">
        <ele>227.1</ele>
        <time>2020-01-08T14:29:38Z</time>
      </trkpt>
      <trkpt lat="43.51902" lon="6.40889">
        <ele>226.9</ele>
        <time>2020-01-08T14:29:46Z</time>
      </trkpt>
      <trkpt lat="43.51911" lon="6.40885">
        <ele>226.3</ele>
        <time>2020-01-08T14:29:57Z</time>
      </trkpt>
      <trkpt lat="43.5192" lon="6.40882">
        <ele>225.5</ele>
        <time>2020-01-08T14:30:07Z</time>
      </trkpt>
      <trkpt lat="43.51929" lon="6.40879">
        <ele>224.5</ele>
        <time>2020-01-08T14:30:19Z</time>
      </trkpt>
      <trkpt lat="43.51939" lon="6.40876">
        <ele>223.3</ele>
        <time>2020-01-08T14:30:29Z</time>
      </trkpt>
      <trkpt lat="43.51949" lon="6.40875">
        <ele>222.6</ele>
        <time>2020-01-08T14:30:40Z</time>
      </trkpt>
      <trkpt lat="43.51958" lon="6.40876">
        <ele>221.5</ele>
        <time>2020-01-08T14:30:52Z</time>
      </trkpt>
      <trkpt lat="43.51967" lon="6.40878">
        <ele>220.9</ele>
        <time>2020-01-08T14:31:04Z</time>
      </trkpt>
      <trkpt lat="43.51976" lon="6.40883">
        <ele>220.1</ele>
        <time>2020-01-08T14:31:16Z</time>
      </trkpt>
      <trkpt lat="43.51984" lon="6.4089">
        <ele>218.9</ele>
        <time>2020-01-08T14:31:30Z</time>
      </trkpt>
      <trkpt lat="43.51992" lon="6.40895">
        <ele>217.7</ele>
        <time>2020-01-08T14:31:40Z</time>
      </trkpt>
      <trkpt lat="43.52001" lon="6.40899">
        <ele>217.2</ele>
        <time>2020-01-08T14:31:50Z</time>
      </trkpt>
      <trkpt lat="43.5201" lon="6.40906">
        <ele>216.9</ele>
        <time>2020-01-08T14:31:59Z</time>
      </trkpt>
      <trkpt lat="43.52018" lon="6.40911">
        <ele>216</ele>
        <time>2020-01-08T14:32:10Z</time>
      </trkpt>
      <trkpt lat="43.52027" lon="6.40917">
        <ele>215.4</ele>
        <time>2020-01-08T14:32:19Z</time>
      </trkpt>
      <trkpt lat="43.52034" lon="6.40925">
        <ele>214.3</ele>
        <time>2020-01-08T14:32:28Z</time>
      </trkpt>
      <trkpt lat="43.52039" lon="6.40937">
        <ele>213.9</ele>
        <time>2020-01-08T14:32:36Z</time>
      </trkpt>
      <trkpt lat="43.52042" lon="6.40949">
        <ele>213.3</ele>
        <time>2020-01-08T14:32:47Z</time>
      </trkpt>
      <trkpt lat="43.52046" lon="6.40962">
        <ele>212.9</ele>
        <time>2020-01-08T14:32:55Z</time>
      </trkpt>
      <trkpt lat="43.5205" lon="6.40974">
        <ele>212.5</ele>
        <time>2020-01-08T14:33:02Z</time>
      </trkpt>
      <trkpt lat="43.52055" lon="6.40986">
        <ele>212</ele>
        <time>2020-01-08T14:33:11Z</time>
      </trkpt>
      <trkpt lat="43.52057" lon="6.40998">
        <ele>211.5</ele>
        <time>2020-01-08T14:33:22Z</time>
      </trkpt>
      <trkpt lat="43.52066" lon="6.40998">
        <ele>209.9</ele>
        <time>2020-01-08T14:33:42Z</time>
      </trkpt>
      <trkpt lat="43.5207" lon="6.40986">
        <ele>208.3</ele>
        <time>2020-01-08T14:34:01Z</time>
      </trkpt>
      <trkpt lat="43.52079" lon="6.40979">
        <ele>207.4</ele>
        <time>2020-01-08T14:34:11Z</time>
      </trkpt>
      <trkpt lat="43.52088" lon="6.40974">
        <ele>206.7</ele>
        <time>2020-01-08T14:34:20Z</time>
      </trkpt>
      <trkpt lat="43.52097" lon="6.40969">
        <ele>206</ele>
        <time>2020-01-08T14:34:31Z</time>
      </trkpt>
      <trkpt lat="43.52106" lon="6.40967">
        <ele>205.7</ele>
        <time>2020-01-08T14:34:40Z</time>
      </trkpt>
      <trkpt lat="43.52115" lon="6.40964">
        <ele>205.1</ele>
        <time>2020-01-08T14:34:49Z</time>
      </trkpt>
      <trkpt lat="43.52124" lon="6.4096">
        <ele>204.8</ele>
        <time>2020-01-08T14:34:56Z</time>
      </trkpt>
      <trkpt lat="43.52133" lon="6.40958">
        <ele>204.7</ele>
        <time>2020-01-08T14:35:04Z</time>
      </trkpt>
      <trkpt lat="43.52142" lon="6.40959">
        <ele>205</ele>
        <time>2020-01-08T14:35:15Z</time>
      </trkpt>
      <trkpt lat="43.52152" lon="6.40959">
        <ele>205</ele>
        <time>2020-01-08T14:35:27Z</time>
      </trkpt>
      <trkpt lat="43.52161" lon="6.40961">
        <ele>204.7</ele>
        <time>2020-01-08T14:35:42Z</time>
      </trkpt>
      <trkpt lat="43.5217" lon="6.40957">
        <ele>204.1</ele>
        <time>2020-01-08T14:36:06Z</time>
      </trkpt>
      <trkpt lat="43.52179" lon="6.40953">
        <ele>203.8</ele>
        <time>2020-01-08T14:36:17Z</time>
      </trkpt>
      <trkpt lat="43.52186" lon="6.40944">
        <ele>203.1</ele>
        <time>2020-01-08T14:36:31Z</time>
      </trkpt>
      <trkpt lat="43.52187" lon="6.40931">
        <ele>203.4</ele>
        <time>2020-01-08T14:36:47Z</time>
      </trkpt>
      <trkpt lat="43.52195" lon="6.40925">
        <ele>203.6</ele>
        <time>2020-01-08T14:36:57Z</time>
      </trkpt>
      <trkpt lat="43.52203" lon="6.40918">
        <ele>204.1</ele>
        <time>2020-01-08T14:37:09Z</time>
      </trkpt>
      <trkpt lat="43.52212" lon="6.40915">
        <ele>204.8</ele>
        <time>2020-01-08T14:37:39Z</time>
      </trkpt>
      <trkpt lat="43.52219" lon="6.40906">
        <ele>206.6</ele>
        <time>2020-01-08T14:42:55Z</time>
      </trkpt>
      <trkpt lat="43.52226" lon="6.40897">
        <ele>207.1</ele>
        <time>2020-01-08T14:43:10Z</time>
      </trkpt>
      <trkpt lat="43.52232" lon="6.40888">
        <ele>208.2</ele>
        <time>2020-01-08T14:43:25Z</time>
      </trkpt>
      <trkpt lat="43.5224" lon="6.40879">
        <ele>209.5</ele>
        <time>2020-01-08T14:43:41Z</time>
      </trkpt>
      <trkpt lat="43.52248" lon="6.40872">
        <ele>210.3</ele>
        <time>2020-01-08T14:43:51Z</time>
      </trkpt>
      <trkpt lat="43.52256" lon="6.40866">
        <ele>211</ele>
        <time>2020-01-08T14:44:02Z</time>
      </trkpt>
      <trkpt lat="43.52264" lon="6.4086">
        <ele>211.4</ele>
        <time>2020-01-08T14:44:11Z</time>
      </trkpt>
      <trkpt lat="43.52272" lon="6.40851">
        <ele>211.9</ele>
        <time>2020-01-08T14:44:21Z</time>
      </trkpt>
      <trkpt lat="43.5228" lon="6.40847">
        <ele>212.3</ele>
        <time>2020-01-08T14:44:30Z</time>
      </trkpt>
      <trkpt lat="43.52289" lon="6.40844">
        <ele>212.6</ele>
        <time>2020-01-08T14:44:38Z</time>
      </trkpt>
      <trkpt lat="43.52298" lon="6.40841">
        <ele>213.2</ele>
        <time>2020-01-08T14:44:51Z</time>
      </trkpt>
      <trkpt lat="43.52307" lon="6.40835">
        <ele>213.6</ele>
        <time>2020-01-08T14:45:03Z</time>
      </trkpt>
      <trkpt lat="43.52315" lon="6.40828">
        <ele>214.4</ele>
        <time>2020-01-08T14:45:15Z</time>
      </trkpt>
      <trkpt lat="43.52323" lon="6.40821">
        <ele>215.1</ele>
        <time>2020-01-08T14:45:26Z</time>
      </trkpt>
      <trkpt lat="43.52332" lon="6.40815">
        <ele>215.7</ele>
        <time>2020-01-08T14:45:35Z</time>
      </trkpt>
      <trkpt lat="43.5234" lon="6.40808">
        <ele>216.6</ele>
        <time>2020-01-08T14:45:44Z</time>
      </trkpt>
      <trkpt lat="43.52349" lon="6.40805">
        <ele>217.3</ele>
        <time>2020-01-08T14:45:52Z</time>
      </trkpt>
      <trkpt lat="43.52357" lon="6.408">
        <ele>218.4</ele>
        <time>2020-01-08T14:46:03Z</time>
      </trkpt>
      <trkpt lat="43.52366" lon="6.40795">
        <ele>219.3</ele>
        <time>2020-01-08T14:46:13Z</time>
      </trkpt>
      <trkpt lat="43.52375" lon="6.40791">
        <ele>221</ele>
        <time>2020-01-08T14:46:28Z</time>
      </trkpt>
      <trkpt lat="43.52383" lon="6.40784">
        <ele>222.4</ele>
        <time>2020-01-08T14:46:40Z</time>
      </trkpt>
      <trkpt lat="43.52389" lon="6.40774">
        <ele>224</ele>
        <time>2020-01-08T14:46:53Z</time>
      </trkpt>
      <trkpt lat="43.52395" lon="6.40763">
        <ele>225.8</ele>
        <time>2020-01-08T14:47:08Z</time>
      </trkpt>
      <trkpt lat="43.52399" lon="6.40752">
        <ele>227.4</ele>
        <time>2020-01-08T14:47:22Z</time>
      </trkpt>
      <trkpt lat="43.5239" lon="6.4075">
        <ele>229.2</ele>
        <time>2020-01-08T14:47:49Z</time>
      </trkpt>
      <trkpt lat="43.52382" lon="6.40758">
        <ele>229.7</ele>
        <time>2020-01-08T14:48:02Z</time>
      </trkpt>
      <trkpt lat="43.52373" lon="6.40763">
        <ele>229.7</ele>
        <time>2020-01-08T14:48:11Z</time>
      </trkpt>
      <trkpt lat="43.52366" lon="6.40772">
        <ele>229.6</ele>
        <time>2020-01-08T14:48:22Z</time>
      </trkpt>
      <trkpt lat="43.52358" lon="6.40777">
        <ele>229.4</ele>
        <time>2020-01-08T14:48:31Z</time>
      </trkpt>
      <trkpt lat="43.52349" lon="6.40781">
        <ele>229.1</ele>
        <time>2020-01-08T14:48:40Z</time>
      </trkpt>
      <trkpt lat="43.5234" lon="6.40784">
        <ele>228.9</ele>
        <time>2020-01-08T14:48:49Z</time>
      </trkpt>
      <trkpt lat="43.52331" lon="6.40787">
        <ele>228.8</ele>
        <time>2020-01-08T14:48:58Z</time>
      </trkpt>
      <trkpt lat="43.52322" lon="6.40789">
        <ele>228.9</ele>
        <time>2020-01-08T14:49:07Z</time>
      </trkpt>
      <trkpt lat="43.52313" lon="6.40794">
        <ele>228.8</ele>
        <time>2020-01-08T14:49:17Z</time>
      </trkpt>
      <trkpt lat="43.52304" lon="6.408">
        <ele>228.7</ele>
        <time>2020-01-08T14:49:26Z</time>
      </trkpt>
      <trkpt lat="43.52296" lon="6.40807">
        <ele>228.8</ele>
        <time>2020-01-08T14:49:35Z</time>
      </trkpt>
      <trkpt lat="43.52287" lon="6.4081">
        <ele>228.6</ele>
        <time>2020-01-08T14:49:42Z</time>
      </trkpt>
      <trkpt lat="43.52279" lon="6.40816">
        <ele>228.5</ele>
        <time>2020-01-08T14:49:50Z</time>
      </trkpt>
      <trkpt lat="43.5227" lon="6.4082">
        <ele>228.6</ele>
        <time>2020-01-08T14:49:59Z</time>
      </trkpt>
      <trkpt lat="43.52261" lon="6.40821">
        <ele>228.4</ele>
        <time>2020-01-08T14:50:06Z</time>
      </trkpt>
      <trkpt lat="43.52252" lon="6.40826">
        <ele>228.7</ele>
        <time>2020-01-08T14:50:14Z</time>
      </trkpt>
      <trkpt lat="43.52242" lon="6.4083">
        <ele>228.6</ele>
        <time>2020-01-08T14:50:22Z</time>
      </trkpt>
      <trkpt lat="43.52234" lon="6.40836">
        <ele>228.6</ele>
        <time>2020-01-08T14:50:31Z</time>
      </trkpt>
      <trkpt lat="43.52225" lon="6.40839">
        <ele>228.7</ele>
        <time>2020-01-08T14:50:37Z</time>
      </trkpt>
      <trkpt lat="43.52217" lon="6.40843">
        <ele>228.7</ele>
        <time>2020-01-08T14:50:44Z</time>
      </trkpt>
      <trkpt lat="43.52207" lon="6.40847">
        <ele>228.8</ele>
        <time>2020-01-08T14:50:52Z</time>
      </trkpt>
      <trkpt lat="43.52198" lon="6.40852">
        <ele>228.9</ele>
        <time>2020-01-08T14:51:00Z</time>
      </trkpt>
      <trkpt lat="43.52189" lon="6.40856">
        <ele>228.5</ele>
        <time>2020-01-08T14:51:08Z</time>
      </trkpt>
      <trkpt lat="43.52179" lon="6.40857">
        <ele>228.4</ele>
        <time>2020-01-08T14:51:17Z</time>
      </trkpt>
      <trkpt lat="43.52169" lon="6.40855">
        <ele>228.4</ele>
        <time>2020-01-08T14:51:24Z</time>
      </trkpt>
      <trkpt lat="43.5216" lon="6.40852">
        <ele>228.2</ele>
        <time>2020-01-08T14:51:30Z</time>
      </trkpt>
      <trkpt lat="43.52151" lon="6.40854">
        <ele>227.9</ele>
        <time>2020-01-08T14:51:37Z</time>
      </trkpt>
      <trkpt lat="43.52141" lon="6.40852">
        <ele>227.9</ele>
        <time>2020-01-08T14:51:44Z</time>
      </trkpt>
      <trkpt lat="43.52132" lon="6.40847">
        <ele>228</ele>
        <time>2020-01-08T14:51:50Z</time>
      </trkpt>
      <trkpt lat="43.52123" lon="6.40839">
        <ele>228.1</ele>
        <time>2020-01-08T14:51:58Z</time>
      </trkpt>
      <trkpt lat="43.52115" lon="6.40835">
        <ele>228.2</ele>
        <time>2020-01-08T14:52:06Z</time>
      </trkpt>
      <trkpt lat="43.52106" lon="6.4083">
        <ele>228.2</ele>
        <time>2020-01-08T14:52:13Z</time>
      </trkpt>
      <trkpt lat="43.52097" lon="6.40824">
        <ele>228.3</ele>
        <time>2020-01-08T14:52:21Z</time>
      </trkpt>
      <trkpt lat="43.52089" lon="6.4082">
        <ele>228</ele>
        <time>2020-01-08T14:52:28Z</time>
      </trkpt>
      <trkpt lat="43.5208" lon="6.40813">
        <ele>227.8</ele>
        <time>2020-01-08T14:52:35Z</time>
      </trkpt>
      <trkpt lat="43.52071" lon="6.40807">
        <ele>227.8</ele>
        <time>2020-01-08T14:52:43Z</time>
      </trkpt>
      <trkpt lat="43.52063" lon="6.40801">
        <ele>228</ele>
        <time>2020-01-08T14:52:51Z</time>
      </trkpt>
      <trkpt lat="43.52055" lon="6.40795">
        <ele>228.1</ele>
        <time>2020-01-08T14:52:59Z</time>
      </trkpt>
      <trkpt lat="43.52047" lon="6.40788">
        <ele>228.2</ele>
        <time>2020-01-08T14:53:06Z</time>
      </trkpt>
      <trkpt lat="43.52039" lon="6.40781">
        <ele>228.2</ele>
        <time>2020-01-08T14:53:13Z</time>
      </trkpt>
      <trkpt lat="43.5203" lon="6.40774">
        <ele>228.2</ele>
        <time>2020-01-08T14:53:20Z</time>
      </trkpt>
      <trkpt lat="43.52022" lon="6.40765">
        <ele>228.2</ele>
        <time>2020-01-08T14:53:28Z</time>
      </trkpt>
      <trkpt lat="43.52015" lon="6.40758">
        <ele>228.1</ele>
        <time>2020-01-08T14:53:35Z</time>
      </trkpt>
      <trkpt lat="43.52006" lon="6.4075">
        <ele>227.8</ele>
        <time>2020-01-08T14:53:43Z</time>
      </trkpt>
      <trkpt lat="43.51998" lon="6.40745">
        <ele>227.7</ele>
        <time>2020-01-08T14:53:51Z</time>
      </trkpt>
      <trkpt lat="43.51989" lon="6.40738">
        <ele>227.5</ele>
        <time>2020-01-08T14:53:58Z</time>
      </trkpt>
      <trkpt lat="43.51981" lon="6.40731">
        <ele>227.4</ele>
        <time>2020-01-08T14:54:05Z</time>
      </trkpt>
      <trkpt lat="43.51973" lon="6.40726">
        <ele>227.2</ele>
        <time>2020-01-08T14:54:13Z</time>
      </trkpt>
      <trkpt lat="43.51963" lon="6.40722">
        <ele>227.3</ele>
        <time>2020-01-08T14:54:22Z</time>
      </trkpt>
      <trkpt lat="43.51954" lon="6.40719">
        <ele>227.1</ele>
        <time>2020-01-08T14:54:31Z</time>
      </trkpt>
      <trkpt lat="43.51944" lon="6.40715">
        <ele>227.1</ele>
        <time>2020-01-08T14:54:39Z</time>
      </trkpt>
      <trkpt lat="43.51935" lon="6.40711">
        <ele>227.2</ele>
        <time>2020-01-08T14:54:45Z</time>
      </trkpt>
      <trkpt lat="43.51925" lon="6.40709">
        <ele>227.3</ele>
        <time>2020-01-08T14:54:53Z</time>
      </trkpt>
      <trkpt lat="43.51916" lon="6.40709">
        <ele>227</ele>
        <time>2020-01-08T14:55:01Z</time>
      </trkpt>
      <trkpt lat="43.51906" lon="6.40706">
        <ele>226.9</ele>
        <time>2020-01-08T14:55:11Z</time>
      </trkpt>
      <trkpt lat="43.51897" lon="6.40703">
        <ele>226.8</ele>
        <time>2020-01-08T14:55:19Z</time>
      </trkpt>
      <trkpt lat="43.51888" lon="6.407">
        <ele>226.8</ele>
        <time>2020-01-08T14:55:27Z</time>
      </trkpt>
      <trkpt lat="43.51878" lon="6.407">
        <ele>226.6</ele>
        <time>2020-01-08T14:55:35Z</time>
      </trkpt>
      <trkpt lat="43.51868" lon="6.407">
        <ele>226.6</ele>
        <time>2020-01-08T14:55:43Z</time>
      </trkpt>
      <trkpt lat="43.51858" lon="6.40701">
        <ele>226.5</ele>
        <time>2020-01-08T14:55:51Z</time>
      </trkpt>
      <trkpt lat="43.51849" lon="6.407">
        <ele>226.7</ele>
        <time>2020-01-08T14:55:59Z</time>
      </trkpt>
      <trkpt lat="43.5184" lon="6.407">
        <ele>226.7</ele>
        <time>2020-01-08T14:56:08Z</time>
      </trkpt>
      <trkpt lat="43.51831" lon="6.40699">
        <ele>226.7</ele>
        <time>2020-01-08T14:56:19Z</time>
      </trkpt>
      <trkpt lat="43.51821" lon="6.40702">
        <ele>226.7</ele>
        <time>2020-01-08T14:56:28Z</time>
      </trkpt>
      <trkpt lat="43.51812" lon="6.407">
        <ele>226.7</ele>
        <time>2020-01-08T14:56:35Z</time>
      </trkpt>
      <trkpt lat="43.51802" lon="6.40698">
        <ele>226.4</ele>
        <time>2020-01-08T14:56:41Z</time>
      </trkpt>
      <trkpt lat="43.51793" lon="6.40696">
        <ele>226.2</ele>
        <time>2020-01-08T14:56:49Z</time>
      </trkpt>
      <trkpt lat="43.51783" lon="6.40695">
        <ele>226.1</ele>
        <time>2020-01-08T14:56:57Z</time>
      </trkpt>
      <trkpt lat="43.51773" lon="6.40692">
        <ele>226</ele>
        <time>2020-01-08T14:57:04Z</time>
      </trkpt>
      <trkpt lat="43.51763" lon="6.40693">
        <ele>226.2</ele>
        <time>2020-01-08T14:57:11Z</time>
      </trkpt>
      <trkpt lat="43.51753" lon="6.40694">
        <ele>225.9</ele>
        <time>2020-01-08T14:57:21Z</time>
      </trkpt>
      <trkpt lat="43.51744" lon="6.40696">
        <ele>226</ele>
        <time>2020-01-08T14:57:30Z</time>
      </trkpt>
      <trkpt lat="43.51735" lon="6.40697">
        <ele>226.1</ele>
        <time>2020-01-08T14:57:38Z</time>
      </trkpt>
      <trkpt lat="43.51726" lon="6.40693">
        <ele>226</ele>
        <time>2020-01-08T14:57:45Z</time>
      </trkpt>
      <trkpt lat="43.51715" lon="6.40692">
        <ele>225.7</ele>
        <time>2020-01-08T14:57:53Z</time>
      </trkpt>
      <trkpt lat="43.51706" lon="6.40692">
        <ele>225.6</ele>
        <time>2020-01-08T14:57:58Z</time>
      </trkpt>
      <trkpt lat="43.51696" lon="6.40691">
        <ele>225.3</ele>
        <time>2020-01-08T14:58:04Z</time>
      </trkpt>
      <trkpt lat="43.51687" lon="6.40693">
        <ele>225.3</ele>
        <time>2020-01-08T14:58:20Z</time>
      </trkpt>
      <trkpt lat="43.51678" lon="6.40692">
        <ele>225.6</ele>
        <time>2020-01-08T14:58:33Z</time>
      </trkpt>
      <trkpt lat="43.51669" lon="6.40691">
        <ele>226.4</ele>
        <time>2020-01-08T14:58:44Z</time>
      </trkpt>
      <trkpt lat="43.51659" lon="6.40691">
        <ele>227.5</ele>
        <time>2020-01-08T14:58:57Z</time>
      </trkpt>
      <trkpt lat="43.5165" lon="6.4069">
        <ele>228.5</ele>
        <time>2020-01-08T14:59:06Z</time>
      </trkpt>
      <trkpt lat="43.51641" lon="6.40693">
        <ele>229.4</ele>
        <time>2020-01-08T14:59:17Z</time>
      </trkpt>
      <trkpt lat="43.51632" lon="6.40698">
        <ele>230.5</ele>
        <time>2020-01-08T14:59:27Z</time>
      </trkpt>
      <trkpt lat="43.51623" lon="6.40696">
        <ele>231</ele>
        <time>2020-01-08T14:59:36Z</time>
      </trkpt>
      <trkpt lat="43.51614" lon="6.40693">
        <ele>230.9</ele>
        <time>2020-01-08T14:59:43Z</time>
      </trkpt>
      <trkpt lat="43.51606" lon="6.40685">
        <ele>230.9</ele>
        <time>2020-01-08T14:59:50Z</time>
      </trkpt>
      <trkpt lat="43.516" lon="6.40674">
        <ele>230.7</ele>
        <time>2020-01-08T14:59:57Z</time>
      </trkpt>
      <trkpt lat="43.51595" lon="6.40663">
        <ele>230.7</ele>
        <time>2020-01-08T15:00:05Z</time>
      </trkpt>
      <trkpt lat="43.5159" lon="6.40652">
        <ele>230.7</ele>
        <time>2020-01-08T15:00:13Z</time>
      </trkpt>
      <trkpt lat="43.51586" lon="6.4064">
        <ele>230.7</ele>
        <time>2020-01-08T15:00:22Z</time>
      </trkpt>
      <trkpt lat="43.51582" lon="6.40628">
        <ele>230.8</ele>
        <time>2020-01-08T15:00:32Z</time>
      </trkpt>
      <trkpt lat="43.51577" lon="6.40617">
        <ele>230.9</ele>
        <time>2020-01-08T15:00:42Z</time>
      </trkpt>
      <trkpt lat="43.51572" lon="6.40605">
        <ele>229.8</ele>
        <time>2020-01-08T15:00:53Z</time>
      </trkpt>
      <trkpt lat="43.51568" lon="6.40592">
        <ele>228.8</ele>
        <time>2020-01-08T15:01:04Z</time>
      </trkpt>
      <trkpt lat="43.51564" lon="6.4058">
        <ele>227.6</ele>
        <time>2020-01-08T15:01:13Z</time>
      </trkpt>
      <trkpt lat="43.51563" lon="6.40567">
        <ele>226.5</ele>
        <time>2020-01-08T15:01:21Z</time>
      </trkpt>
      <trkpt lat="43.51563" lon="6.40554">
        <ele>225.3</ele>
        <time>2020-01-08T15:01:29Z</time>
      </trkpt>
      <trkpt lat="43.51562" lon="6.40541">
        <ele>224.7</ele>
        <time>2020-01-08T15:01:37Z</time>
      </trkpt>
      <trkpt lat="43.51558" lon="6.40529">
        <ele>224.4</ele>
        <time>2020-01-08T15:01:46Z</time>
      </trkpt>
      <trkpt lat="43.51557" lon="6.40516">
        <ele>224.2</ele>
        <time>2020-01-08T15:01:53Z</time>
      </trkpt>
      <trkpt lat="43.51558" lon="6.40504">
        <ele>224.1</ele>
        <time>2020-01-08T15:01:59Z</time>
      </trkpt>
      <trkpt lat="43.51556" lon="6.4049">
        <ele>223.9</ele>
        <time>2020-01-08T15:02:06Z</time>
      </trkpt>
      <trkpt lat="43.51556" lon="6.40476">
        <ele>223.8</ele>
        <time>2020-01-08T15:02:14Z</time>
      </trkpt>
      <trkpt lat="43.51557" lon="6.40463">
        <ele>223.5</ele>
        <time>2020-01-08T15:02:25Z</time>
      </trkpt>
      <trkpt lat="43.51554" lon="6.4045">
        <ele>223.3</ele>
        <time>2020-01-08T15:02:35Z</time>
      </trkpt>
      <trkpt lat="43.5155" lon="6.40439">
        <ele>222.6</ele>
        <time>2020-01-08T15:02:45Z</time>
      </trkpt>
      <trkpt lat="43.51546" lon="6.40427">
        <ele>221.8</ele>
        <time>2020-01-08T15:02:53Z</time>
      </trkpt>
      <trkpt lat="43.51542" lon="6.40415">
        <ele>221.6</ele>
        <time>2020-01-08T15:03:00Z</time>
      </trkpt>
      <trkpt lat="43.51539" lon="6.40403">
        <ele>221.1</ele>
        <time>2020-01-08T15:03:07Z</time>
      </trkpt>
      <trkpt lat="43.51537" lon="6.4039">
        <ele>220.8</ele>
        <time>2020-01-08T15:03:16Z</time>
      </trkpt>
      <trkpt lat="43.51535" lon="6.40378">
        <ele>220.7</ele>
        <time>2020-01-08T15:03:25Z</time>
      </trkpt>
      <trkpt lat="43.5153" lon="6.40367">
        <ele>220.7</ele>
        <time>2020-01-08T15:03:39Z</time>
      </trkpt>
      <trkpt lat="43.51527" lon="6.40354">
        <ele>220.7</ele>
        <time>2020-01-08T15:03:46Z</time>
      </trkpt>
      <trkpt lat="43.51523" lon="6.40342">
        <ele>220.9</ele>
        <time>2020-01-08T15:03:59Z</time>
      </trkpt>
      <trkpt lat="43.51516" lon="6.40335">
        <ele>221.6</ele>
        <time>2020-01-08T15:04:56Z</time>
      </trkpt>
      <trkpt lat="43.5151" lon="6.40325">
        <ele>221.7</ele>
        <time>2020-01-08T15:05:47Z</time>
      </trkpt>
      <trkpt lat="43.51506" lon="6.40313">
        <ele>222.2</ele>
        <time>2020-01-08T15:06:01Z</time>
      </trkpt>
      <trkpt lat="43.51501" lon="6.40302">
        <ele>222.9</ele>
        <time>2020-01-08T15:06:12Z</time>
      </trkpt>
      <trkpt lat="43.51498" lon="6.4029">
        <ele>224.3</ele>
        <time>2020-01-08T15:06:24Z</time>
      </trkpt>
      <trkpt lat="43.51494" lon="6.40278">
        <ele>225.8</ele>
        <time>2020-01-08T15:06:37Z</time>
      </trkpt>
      <trkpt lat="43.51489" lon="6.40268">
        <ele>227.6</ele>
        <time>2020-01-08T15:06:49Z</time>
      </trkpt>
      <trkpt lat="43.51482" lon="6.40259">
        <ele>229.1</ele>
        <time>2020-01-08T15:07:00Z</time>
      </trkpt>
      <trkpt lat="43.51477" lon="6.40249">
        <ele>230.9</ele>
        <time>2020-01-08T15:07:13Z</time>
      </trkpt>
      <trkpt lat="43.51479" lon="6.40237">
        <ele>232.4</ele>
        <time>2020-01-08T15:07:23Z</time>
      </trkpt>
      <trkpt lat="43.51483" lon="6.40225">
        <ele>233.3</ele>
        <time>2020-01-08T15:07:33Z</time>
      </trkpt>
      <trkpt lat="43.51486" lon="6.40213">
        <ele>233.5</ele>
        <time>2020-01-08T15:07:41Z</time>
      </trkpt>
      <trkpt lat="43.5149" lon="6.40202">
        <ele>233.8</ele>
        <time>2020-01-08T15:07:50Z</time>
      </trkpt>
      <trkpt lat="43.51496" lon="6.40192">
        <ele>234.2</ele>
        <time>2020-01-08T15:08:00Z</time>
      </trkpt>
      <trkpt lat="43.515" lon="6.4018">
        <ele>233.9</ele>
        <time>2020-01-08T15:08:15Z</time>
      </trkpt>
      <trkpt lat="43.51505" lon="6.40169">
        <ele>233</ele>
        <time>2020-01-08T15:08:27Z</time>
      </trkpt>
      <trkpt lat="43.51509" lon="6.40157">
        <ele>231.6</ele>
        <time>2020-01-08T15:08:38Z</time>
      </trkpt>
      <trkpt lat="43.51515" lon="6.40147">
        <ele>230.7</ele>
        <time>2020-01-08T15:08:45Z</time>
      </trkpt>
      <trkpt lat="43.51521" lon="6.40136">
        <ele>229.1</ele>
        <time>2020-01-08T15:08:56Z</time>
      </trkpt>
      <trkpt lat="43.51527" lon="6.40126">
        <ele>228.4</ele>
        <time>2020-01-08T15:09:03Z</time>
      </trkpt>
      <trkpt lat="43.51533" lon="6.40117">
        <ele>227.7</ele>
        <time>2020-01-08T15:09:10Z</time>
      </trkpt>
      <trkpt lat="43.51538" lon="6.40106">
        <ele>226.6</ele>
        <time>2020-01-08T15:09:19Z</time>
      </trkpt>
      <trkpt lat="43.51545" lon="6.40097">
        <ele>225.7</ele>
        <time>2020-01-08T15:09:29Z</time>
      </trkpt>
      <trkpt lat="43.51552" lon="6.40088">
        <ele>224.6</ele>
        <time>2020-01-08T15:09:39Z</time>
      </trkpt>
      <trkpt lat="43.51559" lon="6.40078">
        <ele>223.3</ele>
        <time>2020-01-08T15:09:50Z</time>
      </trkpt>
      <trkpt lat="43.51566" lon="6.40069">
        <ele>222</ele>
        <time>2020-01-08T15:10:01Z</time>
      </trkpt>
      <trkpt lat="43.51573" lon="6.40061">
        <ele>221</ele>
        <time>2020-01-08T15:10:08Z</time>
      </trkpt>
      <trkpt lat="43.5158" lon="6.4005">
        <ele>220.3</ele>
        <time>2020-01-08T15:10:16Z</time>
      </trkpt>
      <trkpt lat="43.51585" lon="6.40038">
        <ele>219.9</ele>
        <time>2020-01-08T15:10:25Z</time>
      </trkpt>
      <trkpt lat="43.51591" lon="6.40028">
        <ele>219.7</ele>
        <time>2020-01-08T15:10:33Z</time>
      </trkpt>
      <trkpt lat="43.51595" lon="6.40016">
        <ele>219.6</ele>
        <time>2020-01-08T15:10:42Z</time>
      </trkpt>
      <trkpt lat="43.51598" lon="6.40003">
        <ele>219.2</ele>
        <time>2020-01-08T15:10:51Z</time>
      </trkpt>
      <trkpt lat="43.51601" lon="6.39991">
        <ele>219.1</ele>
        <time>2020-01-08T15:10:59Z</time>
      </trkpt>
      <trkpt lat="43.51604" lon="6.39978">
        <ele>219.1</ele>
        <time>2020-01-08T15:11:08Z</time>
      </trkpt>
      <trkpt lat="43.51605" lon="6.39965">
        <ele>219.1</ele>
        <time>2020-01-08T15:11:17Z</time>
      </trkpt>
      <trkpt lat="43.51605" lon="6.39952">
        <ele>218.8</ele>
        <time>2020-01-08T15:11:26Z</time>
      </trkpt>
      <trkpt lat="43.51605" lon="6.39939">
        <ele>218.2</ele>
        <time>2020-01-08T15:11:35Z</time>
      </trkpt>
      <trkpt lat="43.51604" lon="6.39925">
        <ele>218.2</ele>
        <time>2020-01-08T15:11:43Z</time>
      </trkpt>
      <trkpt lat="43.51602" lon="6.39912">
        <ele>218.2</ele>
        <time>2020-01-08T15:11:52Z</time>
      </trkpt>
      <trkpt lat="43.51599" lon="6.399">
        <ele>218.9</ele>
        <time>2020-01-08T15:12:05Z</time>
      </trkpt>
      <trkpt lat="43.51597" lon="6.39887">
        <ele>219.7</ele>
        <time>2020-01-08T15:12:18Z</time>
      </trkpt>
      <trkpt lat="43.51594" lon="6.39875">
        <ele>220.9</ele>
        <time>2020-01-08T15:12:30Z</time>
      </trkpt>
      <trkpt lat="43.51585" lon="6.39871">
        <ele>222.1</ele>
        <time>2020-01-08T15:12:40Z</time>
      </trkpt>
      <trkpt lat="43.51576" lon="6.39869">
        <ele>223</ele>
        <time>2020-01-08T15:12:53Z</time>
      </trkpt>
      <trkpt lat="43.51567" lon="6.39864">
        <ele>223.5</ele>
        <time>2020-01-08T15:13:03Z</time>
      </trkpt>
      <trkpt lat="43.51559" lon="6.39855">
        <ele>223.7</ele>
        <time>2020-01-08T15:13:11Z</time>
      </trkpt>
      <trkpt lat="43.51552" lon="6.39846">
        <ele>223.2</ele>
        <time>2020-01-08T15:13:19Z</time>
      </trkpt>
      <trkpt lat="43.51547" lon="6.39836">
        <ele>222.6</ele>
        <time>2020-01-08T15:13:27Z</time>
      </trkpt>
      <trkpt lat="43.5154" lon="6.39825">
        <ele>222.2</ele>
        <time>2020-01-08T15:13:35Z</time>
      </trkpt>
      <trkpt lat="43.51535" lon="6.39814">
        <ele>222.2</ele>
        <time>2020-01-08T15:13:44Z</time>
      </trkpt>
      <trkpt lat="43.5153" lon="6.39804">
        <ele>222.5</ele>
        <time>2020-01-08T15:13:56Z</time>
      </trkpt>
      <trkpt lat="43.51531" lon="6.39791">
        <ele>223.3</ele>
        <time>2020-01-08T15:14:07Z</time>
      </trkpt>
      <trkpt lat="43.51534" lon="6.39779">
        <ele>224.6</ele>
        <time>2020-01-08T15:14:17Z</time>
      </trkpt>
      <trkpt lat="43.51535" lon="6.39766">
        <ele>225.7</ele>
        <time>2020-01-08T15:14:27Z</time>
      </trkpt>
      <trkpt lat="43.51537" lon="6.39753">
        <ele>227</ele>
        <time>2020-01-08T15:14:36Z</time>
      </trkpt>
      <trkpt lat="43.51538" lon="6.3974">
        <ele>227.9</ele>
        <time>2020-01-08T15:14:44Z</time>
      </trkpt>
      <trkpt lat="43.5154" lon="6.39727">
        <ele>229.1</ele>
        <time>2020-01-08T15:14:55Z</time>
      </trkpt>
      <trkpt lat="43.51545" lon="6.39716">
        <ele>230.1</ele>
        <time>2020-01-08T15:15:10Z</time>
      </trkpt>
      <trkpt lat="43.51551" lon="6.39706">
        <ele>231</ele>
        <time>2020-01-08T15:15:25Z</time>
      </trkpt>
      <trkpt lat="43.51554" lon="6.39693">
        <ele>231</ele>
        <time>2020-01-08T15:15:37Z</time>
      </trkpt>
      <trkpt lat="43.51557" lon="6.39681">
        <ele>231</ele>
        <time>2020-01-08T15:15:47Z</time>
      </trkpt>
      <trkpt lat="43.51557" lon="6.39667">
        <ele>230.4</ele>
        <time>2020-01-08T15:15:57Z</time>
      </trkpt>
      <trkpt lat="43.51557" lon="6.39655">
        <ele>229.8</ele>
        <time>2020-01-08T15:16:06Z</time>
      </trkpt>
      <trkpt lat="43.51559" lon="6.39642">
        <ele>228.7</ele>
        <time>2020-01-08T15:16:15Z</time>
      </trkpt>
      <trkpt lat="43.51559" lon="6.39629">
        <ele>227.5</ele>
        <time>2020-01-08T15:16:24Z</time>
      </trkpt>
      <trkpt lat="43.5156" lon="6.39616">
        <ele>226.2</ele>
        <time>2020-01-08T15:16:38Z</time>
      </trkpt>
      <trkpt lat="43.51561" lon="6.39603">
        <ele>224.6</ele>
        <time>2020-01-08T15:16:52Z</time>
      </trkpt>
      <trkpt lat="43.51564" lon="6.3959">
        <ele>223</ele>
        <time>2020-01-08T15:17:02Z</time>
      </trkpt>
      <trkpt lat="43.51568" lon="6.39578">
        <ele>221.7</ele>
        <time>2020-01-08T15:17:14Z</time>
      </trkpt>
      <trkpt lat="43.51569" lon="6.39564">
        <ele>220.4</ele>
        <time>2020-01-08T15:17:24Z</time>
      </trkpt>
      <trkpt lat="43.51571" lon="6.39551">
        <ele>219.4</ele>
        <time>2020-01-08T15:17:35Z</time>
      </trkpt>
      <trkpt lat="43.51576" lon="6.39539">
        <ele>218.6</ele>
        <time>2020-01-08T15:17:43Z</time>
      </trkpt>
      <trkpt lat="43.51581" lon="6.39529">
        <ele>218</ele>
        <time>2020-01-08T15:17:51Z</time>
      </trkpt>
      <trkpt lat="43.51587" lon="6.39518">
        <ele>217.3</ele>
        <time>2020-01-08T15:18:01Z</time>
      </trkpt>
      <trkpt lat="43.51592" lon="6.39508">
        <ele>216.5</ele>
        <time>2020-01-08T15:18:11Z</time>
      </trkpt>
      <trkpt lat="43.51597" lon="6.39498">
        <ele>215.6</ele>
        <time>2020-01-08T15:18:20Z</time>
      </trkpt>
      <trkpt lat="43.51604" lon="6.3949">
        <ele>214.8</ele>
        <time>2020-01-08T15:18:28Z</time>
      </trkpt>
      <trkpt lat="43.51613" lon="6.39484">
        <ele>213.5</ele>
        <time>2020-01-08T15:18:37Z</time>
      </trkpt>
      <trkpt lat="43.5162" lon="6.39476">
        <ele>212.4</ele>
        <time>2020-01-08T15:18:46Z</time>
      </trkpt>
      <trkpt lat="43.51626" lon="6.39467">
        <ele>211.6</ele>
        <time>2020-01-08T15:18:56Z</time>
      </trkpt>
      <trkpt lat="43.51634" lon="6.3946">
        <ele>211</ele>
        <time>2020-01-08T15:19:05Z</time>
      </trkpt>
      <trkpt lat="43.51642" lon="6.39452">
        <ele>210.7</ele>
        <time>2020-01-08T15:19:13Z</time>
      </trkpt>
      <trkpt lat="43.5165" lon="6.39445">
        <ele>210.5</ele>
        <time>2020-01-08T15:19:21Z</time>
      </trkpt>
      <trkpt lat="43.51658" lon="6.39439">
        <ele>210.1</ele>
        <time>2020-01-08T15:19:28Z</time>
      </trkpt>
      <trkpt lat="43.51667" lon="6.39431">
        <ele>209.9</ele>
        <time>2020-01-08T15:19:35Z</time>
      </trkpt>
      <trkpt lat="43.51675" lon="6.39424">
        <ele>209.6</ele>
        <time>2020-01-08T15:19:42Z</time>
      </trkpt>
      <trkpt lat="43.51683" lon="6.39416">
        <ele>209.3</ele>
        <time>2020-01-08T15:19:49Z</time>
      </trkpt>
      <trkpt lat="43.5169" lon="6.39407">
        <ele>209.2</ele>
        <time>2020-01-08T15:19:57Z</time>
      </trkpt>
      <trkpt lat="43.51697" lon="6.39398">
        <ele>209.2</ele>
        <time>2020-01-08T15:20:04Z</time>
      </trkpt>
      <trkpt lat="43.51703" lon="6.39388">
        <ele>208.7</ele>
        <time>2020-01-08T15:20:12Z</time>
      </trkpt>
      <trkpt lat="43.51709" lon="6.39377">
        <ele>208.3</ele>
        <time>2020-01-08T15:20:20Z</time>
      </trkpt>
      <trkpt lat="43.51714" lon="6.39366">
        <ele>207.9</ele>
        <time>2020-01-08T15:20:28Z</time>
      </trkpt>
      <trkpt lat="43.51718" lon="6.39354">
        <ele>207.7</ele>
        <time>2020-01-08T15:20:35Z</time>
      </trkpt>
      <trkpt lat="43.51721" lon="6.39341">
        <ele>207.6</ele>
        <time>2020-01-08T15:20:43Z</time>
      </trkpt>
      <trkpt lat="43.51724" lon="6.39329">
        <ele>207.4</ele>
        <time>2020-01-08T15:20:50Z</time>
      </trkpt>
      <trkpt lat="43.51726" lon="6.39316">
        <ele>207.1</ele>
        <time>2020-01-08T15:20:58Z</time>
      </trkpt>
      <trkpt lat="43.51727" lon="6.39303">
        <ele>206.9</ele>
        <time>2020-01-08T15:21:05Z</time>
      </trkpt>
      <trkpt lat="43.51729" lon="6.3929">
        <ele>206.8</ele>
        <time>2020-01-08T15:21:12Z</time>
      </trkpt>
      <trkpt lat="43.51729" lon="6.39276">
        <ele>206.7</ele>
        <time>2020-01-08T15:21:20Z</time>
      </trkpt>
      <trkpt lat="43.51729" lon="6.39263">
        <ele>206.5</ele>
        <time>2020-01-08T15:21:29Z</time>
      </trkpt>
      <trkpt lat="43.51727" lon="6.3925">
        <ele>206.3</ele>
        <time>2020-01-08T15:21:37Z</time>
      </trkpt>
      <trkpt lat="43.51725" lon="6.39237">
        <ele>206</ele>
        <time>2020-01-08T15:21:46Z</time>
      </trkpt>
      <trkpt lat="43.51723" lon="6.39225">
        <ele>205.8</ele>
        <time>2020-01-08T15:21:54Z</time>
      </trkpt>
      <trkpt lat="43.51719" lon="6.39212">
        <ele>205.9</ele>
        <time>2020-01-08T15:22:05Z</time>
      </trkpt>
      <trkpt lat="43.51715" lon="6.392">
        <ele>205.8</ele>
        <time>2020-01-08T15:22:14Z</time>
      </trkpt>
      <trkpt lat="43.51709" lon="6.39189">
        <ele>205.6</ele>
        <time>2020-01-08T15:22:22Z</time>
      </trkpt>
      <trkpt lat="43.51704" lon="6.39178">
        <ele>205.2</ele>
        <time>2020-01-08T15:22:31Z</time>
      </trkpt>
      <trkpt lat="43.51699" lon="6.39166">
        <ele>205</ele>
        <time>2020-01-08T15:22:39Z</time>
      </trkpt>
      <trkpt lat="43.51692" lon="6.39157">
        <ele>204.7</ele>
        <time>2020-01-08T15:22:49Z</time>
      </trkpt>
      <trkpt lat="43.51684" lon="6.39148">
        <ele>204.4</ele>
        <time>2020-01-08T15:22:59Z</time>
      </trkpt>
      <trkpt lat="43.51677" lon="6.3914">
        <ele>203.9</ele>
        <time>2020-01-08T15:23:08Z</time>
      </trkpt>
      <trkpt lat="43.5167" lon="6.39132">
        <ele>203.9</ele>
        <time>2020-01-08T15:23:16Z</time>
      </trkpt>
      <trkpt lat="43.51661" lon="6.39125">
        <ele>203.4</ele>
        <time>2020-01-08T15:23:26Z</time>
      </trkpt>
      <trkpt lat="43.51651" lon="6.39121">
        <ele>203.2</ele>
        <time>2020-01-08T15:23:33Z</time>
      </trkpt>
      <trkpt lat="43.51642" lon="6.39118">
        <ele>203.1</ele>
        <time>2020-01-08T15:23:40Z</time>
      </trkpt>
      <trkpt lat="43.51633" lon="6.39112">
        <ele>203</ele>
        <time>2020-01-08T15:23:47Z</time>
      </trkpt>
      <trkpt lat="43.51624" lon="6.39108">
        <ele>202.9</ele>
        <time>2020-01-08T15:23:54Z</time>
      </trkpt>
      <trkpt lat="43.51615" lon="6.39105">
        <ele>202.4</ele>
        <time>2020-01-08T15:24:02Z</time>
      </trkpt>
      <trkpt lat="43.51605" lon="6.39102">
        <ele>202.1</ele>
        <time>2020-01-08T15:24:11Z</time>
      </trkpt>
      <trkpt lat="43.51596" lon="6.39099">
        <ele>201.8</ele>
        <time>2020-01-08T15:24:20Z</time>
      </trkpt>
      <trkpt lat="43.51587" lon="6.39095">
        <ele>201.3</ele>
        <time>2020-01-08T15:24:27Z</time>
      </trkpt>
      <trkpt lat="43.51577" lon="6.39089">
        <ele>200.8</ele>
        <time>2020-01-08T15:24:35Z</time>
      </trkpt>
      <trkpt lat="43.51569" lon="6.39084">
        <ele>200.5</ele>
        <time>2020-01-08T15:24:44Z</time>
      </trkpt>
      <trkpt lat="43.51559" lon="6.39079">
        <ele>199.7</ele>
        <time>2020-01-08T15:24:54Z</time>
      </trkpt>
      <trkpt lat="43.51549" lon="6.39076">
        <ele>199.6</ele>
        <time>2020-01-08T15:25:01Z</time>
      </trkpt>
      <trkpt lat="43.5154" lon="6.39073">
        <ele>199.5</ele>
        <time>2020-01-08T15:25:07Z</time>
      </trkpt>
      <trkpt lat="43.5153" lon="6.3907">
        <ele>199.1</ele>
        <time>2020-01-08T15:25:14Z</time>
      </trkpt>
      <trkpt lat="43.5152" lon="6.39065">
        <ele>198.7</ele>
        <time>2020-01-08T15:25:21Z</time>
      </trkpt>
      <trkpt lat="43.51512" lon="6.3906">
        <ele>198.4</ele>
        <time>2020-01-08T15:25:28Z</time>
      </trkpt>
      <trkpt lat="43.51502" lon="6.39056">
        <ele>198.1</ele>
        <time>2020-01-08T15:25:36Z</time>
      </trkpt>
      <trkpt lat="43.51492" lon="6.39051">
        <ele>198.1</ele>
        <time>2020-01-08T15:25:43Z</time>
      </trkpt>
      <trkpt lat="43.51483" lon="6.39045">
        <ele>197.7</ele>
        <time>2020-01-08T15:25:50Z</time>
      </trkpt>
      <trkpt lat="43.51475" lon="6.39039">
        <ele>197.5</ele>
        <time>2020-01-08T15:25:56Z</time>
      </trkpt>
      <trkpt lat="43.51468" lon="6.3903">
        <ele>197.3</ele>
        <time>2020-01-08T15:26:03Z</time>
      </trkpt>
      <trkpt lat="43.5146" lon="6.39022">
        <ele>197.4</ele>
        <time>2020-01-08T15:26:10Z</time>
      </trkpt>
      <trkpt lat="43.51453" lon="6.39014">
        <ele>197.4</ele>
        <time>2020-01-08T15:26:17Z</time>
      </trkpt>
      <trkpt lat="43.51447" lon="6.39004">
        <ele>196.9</ele>
        <time>2020-01-08T15:26:26Z</time>
      </trkpt>
      <trkpt lat="43.5144" lon="6.38994">
        <ele>196.9</ele>
        <time>2020-01-08T15:26:35Z</time>
      </trkpt>
      <trkpt lat="43.51434" lon="6.38983">
        <ele>196.5</ele>
        <time>2020-01-08T15:26:43Z</time>
      </trkpt>
      <trkpt lat="43.51429" lon="6.38972">
        <ele>196.2</ele>
        <time>2020-01-08T15:26:50Z</time>
      </trkpt>
      <trkpt lat="43.51423" lon="6.38962">
        <ele>196.3</ele>
        <time>2020-01-08T15:26:57Z</time>
      </trkpt>
      <trkpt lat="43.51416" lon="6.38952">
        <ele>196.4</ele>
        <time>2020-01-08T15:27:08Z</time>
      </trkpt>
      <trkpt lat="43.51411" lon="6.38941">
        <ele>197.1</ele>
        <time>2020-01-08T15:27:18Z</time>
      </trkpt>
      <trkpt lat="43.51409" lon="6.38929">
        <ele>198.5</ele>
        <time>2020-01-08T15:27:29Z</time>
      </trkpt>
      <trkpt lat="43.51404" lon="6.38918">
        <ele>199.9</ele>
        <time>2020-01-08T15:27:56Z</time>
      </trkpt>
      <trkpt lat="43.51399" lon="6.38927">
        <ele>199.6</ele>
        <time>2020-01-08T15:28:40Z</time>
      </trkpt>
      <trkpt lat="43.5139" lon="6.38928">
        <ele>199.6</ele>
        <time>2020-01-08T15:29:45Z</time>
      </trkpt>
      <trkpt lat="43.51381" lon="6.38933">
        <ele>198.9</ele>
        <time>2020-01-08T15:29:55Z</time>
      </trkpt>
      <trkpt lat="43.51371" lon="6.38935">
        <ele>198.1</ele>
        <time>2020-01-08T15:30:07Z</time>
      </trkpt>
      <trkpt lat="43.51362" lon="6.38938">
        <ele>196.8</ele>
        <time>2020-01-08T15:30:27Z</time>
      </trkpt>
      <trkpt lat="43.51353" lon="6.38941">
        <ele>196.2</ele>
        <time>2020-01-08T15:30:41Z</time>
      </trkpt>
      <trkpt lat="43.51344" lon="6.38944">
        <ele>195.5</ele>
        <time>2020-01-08T15:30:54Z</time>
      </trkpt>
      <trkpt lat="43.51334" lon="6.38946">
        <ele>195.1</ele>
        <time>2020-01-08T15:31:01Z</time>
      </trkpt>
      <trkpt lat="43.51326" lon="6.3895">
        <ele>194.7</ele>
        <time>2020-01-08T15:31:08Z</time>
      </trkpt>
      <trkpt lat="43.51316" lon="6.38952">
        <ele>194.3</ele>
        <time>2020-01-08T15:31:15Z</time>
      </trkpt>
      <trkpt lat="43.51306" lon="6.38955">
        <ele>193.4</ele>
        <time>2020-01-08T15:31:23Z</time>
      </trkpt>
      <trkpt lat="43.51297" lon="6.38958">
        <ele>192.5</ele>
        <time>2020-01-08T15:31:31Z</time>
      </trkpt>
      <trkpt lat="43.51288" lon="6.38961">
        <ele>191.8</ele>
        <time>2020-01-08T15:31:38Z</time>
      </trkpt>
      <trkpt lat="43.51279" lon="6.38966">
        <ele>190.8</ele>
        <time>2020-01-08T15:31:46Z</time>
      </trkpt>
      <trkpt lat="43.5127" lon="6.38969">
        <ele>190.2</ele>
        <time>2020-01-08T15:31:53Z</time>
      </trkpt>
      <trkpt lat="43.5126" lon="6.38973">
        <ele>189.5</ele>
        <time>2020-01-08T15:32:01Z</time>
      </trkpt>
      <trkpt lat="43.51251" lon="6.38976">
        <ele>188.8</ele>
        <time>2020-01-08T15:32:09Z</time>
      </trkpt>
      <trkpt lat="43.51241" lon="6.38978">
        <ele>187.7</ele>
        <time>2020-01-08T15:32:18Z</time>
      </trkpt>
      <trkpt lat="43.51232" lon="6.38982">
        <ele>186.8</ele>
        <time>2020-01-08T15:32:29Z</time>
      </trkpt>
      <trkpt lat="43.51224" lon="6.38987">
        <ele>186.2</ele>
        <time>2020-01-08T15:32:37Z</time>
      </trkpt>
      <trkpt lat="43.51214" lon="6.3899">
        <ele>185.1</ele>
        <time>2020-01-08T15:32:45Z</time>
      </trkpt>
      <trkpt lat="43.51205" lon="6.38993">
        <ele>184</ele>
        <time>2020-01-08T15:32:53Z</time>
      </trkpt>
      <trkpt lat="43.51196" lon="6.38996">
        <ele>183.4</ele>
        <time>2020-01-08T15:33:01Z</time>
      </trkpt>
      <trkpt lat="43.51186" lon="6.39">
        <ele>182.5</ele>
        <time>2020-01-08T15:33:10Z</time>
      </trkpt>
      <trkpt lat="43.51178" lon="6.39004">
        <ele>181.5</ele>
        <time>2020-01-08T15:33:18Z</time>
      </trkpt>
      <trkpt lat="43.51168" lon="6.39008">
        <ele>180.9</ele>
        <time>2020-01-08T15:33:26Z</time>
      </trkpt>
      <trkpt lat="43.51159" lon="6.3901">
        <ele>179.9</ele>
        <time>2020-01-08T15:33:33Z</time>
      </trkpt>
      <trkpt lat="43.5115" lon="6.39012">
        <ele>178.1</ele>
        <time>2020-01-08T15:33:45Z</time>
      </trkpt>
      <trkpt lat="43.51141" lon="6.39016">
        <ele>176.7</ele>
        <time>2020-01-08T15:33:57Z</time>
      </trkpt>
      <trkpt lat="43.51132" lon="6.3902">
        <ele>175.6</ele>
        <time>2020-01-08T15:34:06Z</time>
      </trkpt>
      <trkpt lat="43.51122" lon="6.39023">
        <ele>174.8</ele>
        <time>2020-01-08T15:34:13Z</time>
      </trkpt>
      <trkpt lat="43.51113" lon="6.39027">
        <ele>173.5</ele>
        <time>2020-01-08T15:34:21Z</time>
      </trkpt>
      <trkpt lat="43.51105" lon="6.39032">
        <ele>172.6</ele>
        <time>2020-01-08T15:34:29Z</time>
      </trkpt>
      <trkpt lat="43.51095" lon="6.39036">
        <ele>171.5</ele>
        <time>2020-01-08T15:34:35Z</time>
      </trkpt>
      <trkpt lat="43.51086" lon="6.3904">
        <ele>170.2</ele>
        <time>2020-01-08T15:34:42Z</time>
      </trkpt>
      <trkpt lat="43.51077" lon="6.39041">
        <ele>168.8</ele>
        <time>2020-01-08T15:35:01Z</time>
      </trkpt>
      <trkpt lat="43.51068" lon="6.39041">
        <ele>168.2</ele>
        <time>2020-01-08T15:36:08Z</time>
      </trkpt>
      <trkpt lat="43.5106" lon="6.39044">
        <ele>168.1</ele>
        <time>2020-01-08T15:36:50Z</time>
      </trkpt>
      <trkpt lat="43.51052" lon="6.39052">
        <ele>167.9</ele>
        <time>2020-01-08T15:37:08Z</time>
      </trkpt>
      <trkpt lat="43.51045" lon="6.3906">
        <ele>168.1</ele>
        <time>2020-01-08T15:37:26Z</time>
      </trkpt>
      <trkpt lat="43.51036" lon="6.3906">
        <ele>168.3</ele>
        <time>2020-01-08T15:37:38Z</time>
      </trkpt>
      <trkpt lat="43.51027" lon="6.39064">
        <ele>168.1</ele>
        <time>2020-01-08T15:37:48Z</time>
      </trkpt>
      <trkpt lat="43.51018" lon="6.39068">
        <ele>168</ele>
        <time>2020-01-08T15:37:56Z</time>
      </trkpt>
      <trkpt lat="43.51009" lon="6.39071">
        <ele>167.8</ele>
        <time>2020-01-08T15:38:02Z</time>
      </trkpt>
      <trkpt lat="43.51" lon="6.39074">
        <ele>167.6</ele>
        <time>2020-01-08T15:38:10Z</time>
      </trkpt>
      <trkpt lat="43.5099" lon="6.39074">
        <ele>167.6</ele>
        <time>2020-01-08T15:38:17Z</time>
      </trkpt>
      <trkpt lat="43.5098" lon="6.39072">
        <ele>167.8</ele>
        <time>2020-01-08T15:38:23Z</time>
      </trkpt>
      <trkpt lat="43.50971" lon="6.39068">
        <ele>168</ele>
        <time>2020-01-08T15:38:31Z</time>
      </trkpt>
      <trkpt lat="43.50962" lon="6.39065">
        <ele>168.2</ele>
        <time>2020-01-08T15:38:40Z</time>
      </trkpt>
      <trkpt lat="43.50952" lon="6.39063">
        <ele>168.4</ele>
        <time>2020-01-08T15:38:51Z</time>
      </trkpt>
      <trkpt lat="43.50941" lon="6.3906">
        <ele>168.5</ele>
        <time>2020-01-08T15:38:58Z</time>
      </trkpt>
      <trkpt lat="43.50932" lon="6.39059">
        <ele>168.5</ele>
        <time>2020-01-08T15:39:07Z</time>
      </trkpt>
      <trkpt lat="43.50922" lon="6.39059">
        <ele>169.2</ele>
        <time>2020-01-08T15:39:16Z</time>
      </trkpt>
      <trkpt lat="43.50913" lon="6.39058">
        <ele>169.5</ele>
        <time>2020-01-08T15:39:25Z</time>
      </trkpt>
      <trkpt lat="43.50904" lon="6.39062">
        <ele>169.8</ele>
        <time>2020-01-08T15:39:33Z</time>
      </trkpt>
      <trkpt lat="43.50895" lon="6.3906">
        <ele>170.3</ele>
        <time>2020-01-08T15:39:43Z</time>
      </trkpt>
      <trkpt lat="43.50886" lon="6.39057">
        <ele>170.7</ele>
        <time>2020-01-08T15:39:52Z</time>
      </trkpt>
      <trkpt lat="43.50877" lon="6.39053">
        <ele>171.2</ele>
        <time>2020-01-08T15:39:59Z</time>
      </trkpt>
      <trkpt lat="43.50868" lon="6.3905">
        <ele>171.8</ele>
        <time>2020-01-08T15:40:06Z</time>
      </trkpt>
      <trkpt lat="43.50858" lon="6.39044">
        <ele>172.2</ele>
        <time>2020-01-08T15:40:14Z</time>
      </trkpt>
      <trkpt lat="43.50851" lon="6.39036">
        <ele>172.3</ele>
        <time>2020-01-08T15:40:23Z</time>
      </trkpt>
      <trkpt lat="43.50844" lon="6.39029">
        <ele>172</ele>
        <time>2020-01-08T15:40:31Z</time>
      </trkpt>
      <trkpt lat="43.50837" lon="6.3902">
        <ele>171.8</ele>
        <time>2020-01-08T15:40:40Z</time>
      </trkpt>
      <trkpt lat="43.50827" lon="6.39017">
        <ele>171.6</ele>
        <time>2020-01-08T15:40:46Z</time>
      </trkpt>
      <trkpt lat="43.50818" lon="6.39012">
        <ele>171.9</ele>
        <time>2020-01-08T15:40:55Z</time>
      </trkpt>
      <trkpt lat="43.50809" lon="6.39006">
        <ele>172</ele>
        <time>2020-01-08T15:41:04Z</time>
      </trkpt>
      <trkpt lat="43.50802" lon="6.38998">
        <ele>172.2</ele>
        <time>2020-01-08T15:41:11Z</time>
      </trkpt>
      <trkpt lat="43.50795" lon="6.38988">
        <ele>172.7</ele>
        <time>2020-01-08T15:41:21Z</time>
      </trkpt>
      <trkpt lat="43.50788" lon="6.38979">
        <ele>173.1</ele>
        <time>2020-01-08T15:41:34Z</time>
      </trkpt>
      <trkpt lat="43.50783" lon="6.38967">
        <ele>172.8</ele>
        <time>2020-01-08T15:41:43Z</time>
      </trkpt>
      <trkpt lat="43.50779" lon="6.38956">
        <ele>171.9</ele>
        <time>2020-01-08T15:41:51Z</time>
      </trkpt>
      <trkpt lat="43.50775" lon="6.38945">
        <ele>170.8</ele>
        <time>2020-01-08T15:42:00Z</time>
      </trkpt>
      <trkpt lat="43.5077" lon="6.38934">
        <ele>169.1</ele>
        <time>2020-01-08T15:42:11Z</time>
      </trkpt>
      <trkpt lat="43.50769" lon="6.38921">
        <ele>167.8</ele>
        <time>2020-01-08T15:42:21Z</time>
      </trkpt>
      <trkpt lat="43.50766" lon="6.38908">
        <ele>166.1</ele>
        <time>2020-01-08T15:42:32Z</time>
      </trkpt>
      <trkpt lat="43.50762" lon="6.38897">
        <ele>164.9</ele>
        <time>2020-01-08T15:42:43Z</time>
      </trkpt>
      <trkpt lat="43.50762" lon="6.38884">
        <ele>164.1</ele>
        <time>2020-01-08T15:42:53Z</time>
      </trkpt>
      <trkpt lat="43.50764" lon="6.38871">
        <ele>163.7</ele>
        <time>2020-01-08T15:43:01Z</time>
      </trkpt>
      <trkpt lat="43.50767" lon="6.38859">
        <ele>163.1</ele>
        <time>2020-01-08T15:43:17Z</time>
      </trkpt>
      <trkpt lat="43.50765" lon="6.3885">
        <ele>163</ele>
        <time>2020-01-08T15:45:00Z</time>
      </trkpt>
    </trkseg>
  </trk>
</gpx>